| time (UTC) | temp C | wind direction | speed KPH | gust KPH | rain 1hr cm | rain 24hr cm | rain mn cm | humidity % | barometer mb |
| 20260504120318 | 13 | 336 | 1.6 | 4.8 | 0.00 | 0.00 | 0.00 | 57 | 1016.6 |
| 20260504120214 | 13 | 336 | 1.6 | 4.8 | 0.00 | 0.00 | 0.00 | 56 | 1016.6 |
| 20260504120115 | 13 | 336 | 1.6 | 4.8 | 0.00 | 0.00 | 0.00 | 57 | 1016.7 |
| 20260504110659 | 11 | 242 | 0.0 | 3.2 | 0.00 | 0.00 | 0.00 | 60 | 1016.4 |
| 20260504110549 | 11 | 242 | 0.0 | 3.2 | 0.00 | 0.00 | 0.00 | 59 | 1016.4 |
| 20260504110451 | 11 | 248 | 0.0 | 3.2 | 0.00 | 0.00 | 0.00 | 59 | 1016.4 |
| 20260504110349 | 11 | 248 | 0.0 | 3.2 | 0.00 | 0.00 | 0.00 | 59 | 1016.4 |
| 20260504110249 | 11 | 248 | 0.0 | 3.2 | 0.00 | 0.00 | 0.00 | 59 | 1016.4 |
| 20260504110149 | 11 | 248 | 0.0 | 3.2 | 0.00 | 0.00 | 0.00 | 59 | 1016.4 |
| 20260504100532 | 11 | 274 | 4.8 | 14.5 | 0.00 | 0.00 | 0.00 | 58 | 1016.4 |
| 20260504100426 | 11 | 290 | 6.4 | 14.5 | 0.00 | 0.00 | 0.00 | 58 | 1016.4 |
| 20260504100326 | 11 | 307 | 6.4 | 14.5 | 0.00 | 0.00 | 0.00 | 57 | 1016.3 |
| 20260504100225 | 11 | 307 | 6.4 | 14.5 | 0.00 | 0.00 | 0.00 | 57 | 1016.4 |
| 20260504100124 | 11 | 304 | 8.0 | 14.5 | 0.00 | 0.00 | 0.00 | 57 | 1016.5 |
| 20260504081958 | 10 | 225 | 0.0 | 3.2 | 0.00 | 0.00 | 0.00 | 52 | 1016.3 |
| 20260504081856 | 10 | 225 | 0.0 | 3.2 | 0.00 | 0.00 | 0.00 | 52 | 1016.2 |
| 20260504081758 | 10 | 225 | 0.0 | 3.2 | 0.00 | 0.00 | 0.00 | 53 | 1016.2 |
| 20260504081651 | 10 | 225 | 0.0 | 3.2 | 0.00 | 0.00 | 0.00 | 52 | 1016.3 |
| 20260504081550 | 10 | 225 | 0.0 | 3.2 | 0.00 | 0.00 | 0.00 | 52 | 1016.3 |
| 20260504081451 | 10 | 225 | 0.0 | 3.2 | 0.00 | 0.00 | 0.00 | 52 | 1016.3 |
| 20260504081350 | 10 | 225 | 0.0 | 3.2 | 0.00 | 0.00 | 0.00 | 53 | 1016.3 |
| 20260504081247 | 10 | 225 | 0.0 | 3.2 | 0.00 | 0.00 | 0.00 | 52 | 1016.3 |
| 20260504081146 | 10 | 225 | 0.0 | 3.2 | 0.00 | 0.00 | 0.00 | 52 | 1016.3 |
| 20260504081046 | 10 | 225 | 0.0 | 3.2 | 0.00 | 0.00 | 0.00 | 52 | 1016.3 |
| 20260504080944 | 10 | 225 | 0.0 | 3.2 | 0.00 | 0.00 | 0.00 | 52 | 1016.3 |
| 20260504080844 | 10 | 225 | 0.0 | 3.2 | 0.00 | 0.00 | 0.00 | 52 | 1016.3 |
| 20260504080742 | 10 | 225 | 0.0 | 3.2 | 0.00 | 0.00 | 0.00 | 52 | 1016.2 |
| 20260504080642 | 10 | 225 | 0.0 | 3.2 | 0.00 | 0.00 | 0.00 | 53 | 1016.3 |
| 20260504080550 | 10 | 225 | 0.0 | 3.2 | 0.00 | 0.00 | 0.00 | 53 | 1016.3 |
| 20260504080439 | 10 | 225 | 0.0 | 3.2 | 0.00 | 0.00 | 0.00 | 52 | 1016.2 |
| 20260504080343 | 10 | 225 | 0.0 | 3.2 | 0.00 | 0.00 | 0.00 | 52 | 1016.2 |
| 20260504080235 | 10 | 225 | 0.0 | 3.2 | 0.00 | 0.00 | 0.00 | 52 | 1016.3 |
| 20260504080130 | 10 | 225 | 0.0 | 3.2 | 0.00 | 0.00 | 0.00 | 53 | 1016.2 |
| 20260504070412 | 10 | 205 | 1.6 | 3.2 | 0.00 | 0.00 | 0.00 | 64 | 1016.5 |
| 20260504070308 | 10 | 205 | 1.6 | 3.2 | 0.00 | 0.00 | 0.00 | 64 | 1016.3 |
| 20260504070210 | 10 | 205 | 1.6 | 3.2 | 0.00 | 0.00 | 0.00 | 64 | 1016.4 |
| 20260504070108 | 10 | 205 | 1.6 | 3.2 | 0.00 | 0.00 | 0.00 | 65 | 1016.3 |
| 20260504060212 | 10 | 201 | 0.0 | 0.0 | 0.00 | 0.00 | 0.00 | 61 | 1016.3 |
| 20260504060109 | 10 | 201 | 0.0 | 0.0 | 0.00 | 0.00 | 0.00 | 61 | 1016.4 |
| 20260504050731 | 10 | 201 | 0.0 | 0.0 | 0.00 | 0.00 | 0.00 | 55 | 1016.7 |
| 20260504050631 | 10 | 201 | 0.0 | 0.0 | 0.00 | 0.00 | 0.00 | 55 | 1016.9 |
| 20260504050532 | 10 | 201 | 0.0 | 0.0 | 0.00 | 0.00 | 0.00 | 55 | 1016.7 |
| 20260504050432 | 11 | 201 | 0.0 | 0.0 | 0.00 | 0.00 | 0.00 | 55 | 1016.7 |
| 20260504050332 | 11 | 201 | 0.0 | 0.0 | 0.00 | 0.00 | 0.00 | 55 | 1016.9 |
| 20260504050231 | 11 | 201 | 0.0 | 0.0 | 0.00 | 0.00 | 0.00 | 55 | 1016.7 |
| 20260504050131 | 11 | 201 | 0.0 | 0.0 | 0.00 | 0.00 | 0.00 | 56 | 1016.7 |
| 20260504045931 | 11 | 201 | 0.0 | 1.6 | 0.00 | 0.00 | 0.00 | 55 | 1016.7 |
| 20260504045831 | 11 | 201 | 0.0 | 1.6 | 0.00 | 0.00 | 0.00 | 56 | 1016.7 |
| 20260504045732 | 11 | 201 | 0.0 | 1.6 | 0.00 | 0.00 | 0.00 | 56 | 1016.7 |
| 20260504045631 | 11 | 201 | 0.0 | 1.6 | 0.00 | 0.00 | 0.00 | 56 | 1016.7 |
| 20260504045531 | 11 | 201 | 0.0 | 1.6 | 0.00 | 0.00 | 0.00 | 56 | 1016.7 |
| 20260504045432 | 11 | 201 | 0.0 | 1.6 | 0.00 | 0.00 | 0.00 | 56 | 1016.9 |
| 20260504045332 | 11 | 201 | 0.0 | 1.6 | 0.00 | 0.00 | 0.00 | 56 | 1016.6 |
| 20260504045232 | 11 | 201 | 0.0 | 1.6 | 0.00 | 0.00 | 0.00 | 56 | 1016.7 |
| 20260504045132 | 11 | 201 | 0.0 | 1.6 | 0.00 | 0.00 | 0.00 | 56 | 1016.9 |
| 20260504045031 | 11 | 201 | 0.0 | 1.6 | 0.00 | 0.00 | 0.00 | 56 | 1016.7 |
| 20260504044931 | 11 | 201 | 0.0 | 1.6 | 0.00 | 0.00 | 0.00 | 57 | 1016.7 |
| 20260504044831 | 11 | 201 | 0.0 | 1.6 | 0.00 | 0.00 | 0.00 | 57 | 1016.9 |
| 20260504044732 | 11 | 201 | 0.0 | 1.6 | 0.00 | 0.00 | 0.00 | 58 | 1016.9 |
| 20260504044632 | 11 | 201 | 0.0 | 1.6 | 0.00 | 0.00 | 0.00 | 58 | 1016.9 |
| 20260504044532 | 11 | 201 | 0.0 | 1.6 | 0.00 | 0.00 | 0.00 | 58 | 1016.6 |
| 20260504044431 | 11 | 201 | 0.0 | 1.6 | 0.00 | 0.00 | 0.00 | 58 | 1016.7 |
| 20260504044333 | 11 | 201 | 0.0 | 1.6 | 0.00 | 0.00 | 0.00 | 59 | 1016.6 |
| 20260504044232 | 11 | 201 | 0.0 | 1.6 | 0.00 | 0.00 | 0.00 | 59 | 1016.6 |
| 20260504044130 | 11 | 201 | 0.0 | 1.6 | 0.00 | 0.00 | 0.00 | 60 | 1016.7 |
| 20260504044032 | 11 | 201 | 0.0 | 1.6 | 0.00 | 0.00 | 0.00 | 60 | 1016.7 |
| 20260504043931 | 11 | 201 | 0.0 | 1.6 | 0.00 | 0.00 | 0.00 | 60 | 1016.7 |
| 20260504043832 | 11 | 201 | 0.0 | 0.0 | 0.00 | 0.00 | 0.00 | 61 | 1016.6 |
| 20260504043732 | 11 | 201 | 0.0 | 0.0 | 0.00 | 0.00 | 0.00 | 61 | 1016.7 |
| 20260504043632 | 11 | 201 | 0.0 | 0.0 | 0.00 | 0.00 | 0.00 | 62 | 1016.6 |
| 20260504043528 | 11 | 201 | 0.0 | 0.0 | 0.00 | 0.00 | 0.00 | 62 | 1016.6 |
| 20260504043427 | 11 | 201 | 0.0 | 0.0 | 0.00 | 0.00 | 0.00 | 62 | 1016.5 |
| 20260504043328 | 11 | 201 | 0.0 | 0.0 | 0.00 | 0.00 | 0.00 | 62 | 1016.4 |
| 20260504043229 | 11 | 201 | 0.0 | 0.0 | 0.00 | 0.00 | 0.00 | 62 | 1016.5 |
| 20260504043128 | 11 | 201 | 0.0 | 0.0 | 0.00 | 0.00 | 0.00 | 62 | 1016.6 |
| 20260504043028 | 11 | 201 | 0.0 | 0.0 | 0.00 | 0.00 | 0.00 | 62 | 1016.5 |
| 20260504042926 | 11 | 201 | 0.0 | 0.0 | 0.00 | 0.00 | 0.00 | 62 | 1016.5 |
| 20260504042828 | 11 | 201 | 0.0 | 0.0 | 0.00 | 0.00 | 0.00 | 62 | 1016.6 |
| 20260504042727 | 11 | 201 | 0.0 | 0.0 | 0.00 | 0.00 | 0.00 | 62 | 1016.5 |
| 20260504042628 | 11 | 201 | 0.0 | 0.0 | 0.00 | 0.00 | 0.00 | 62 | 1016.6 |
| 20260504042528 | 11 | 201 | 0.0 | 0.0 | 0.00 | 0.00 | 0.00 | 62 | 1016.5 |
| 20260504042427 | 11 | 201 | 0.0 | 0.0 | 0.00 | 0.00 | 0.00 | 62 | 1016.6 |
| 20260504042329 | 11 | 201 | 0.0 | 0.0 | 0.00 | 0.00 | 0.00 | 61 | 1016.7 |
| 20260504042227 | 11 | 201 | 0.0 | 0.0 | 0.00 | 0.00 | 0.00 | 61 | 1016.6 |
| 20260504042127 | 11 | 201 | 0.0 | 0.0 | 0.00 | 0.00 | 0.00 | 62 | 1016.6 |
| 20260504042028 | 11 | 201 | 0.0 | 0.0 | 0.00 | 0.00 | 0.00 | 61 | 1016.5 |
| 20260504041927 | 11 | 201 | 0.0 | 0.0 | 0.00 | 0.00 | 0.00 | 61 | 1016.5 |
| 20260504041828 | 11 | 201 | 0.0 | 0.0 | 0.00 | 0.00 | 0.00 | 61 | 1016.6 |
| 20260504041727 | 11 | 201 | 0.0 | 0.0 | 0.00 | 0.00 | 0.00 | 61 | 1016.6 |
| 20260504041627 | 11 | 201 | 0.0 | 0.0 | 0.00 | 0.00 | 0.00 | 61 | 1016.5 |
| 20260504041528 | 11 | 201 | 0.0 | 1.6 | 0.00 | 0.00 | 0.00 | 61 | 1016.6 |
| 20260504041427 | 11 | 201 | 0.0 | 1.6 | 0.00 | 0.00 | 0.00 | 61 | 1016.5 |
| 20260504041327 | 11 | 201 | 0.0 | 1.6 | 0.00 | 0.00 | 0.00 | 62 | 1016.5 |
| 20260504041227 | 11 | 201 | 0.0 | 1.6 | 0.00 | 0.00 | 0.00 | 61 | 1016.6 |
| 20260504041127 | 11 | 201 | 0.0 | 1.6 | 0.00 | 0.00 | 0.00 | 61 | 1016.5 |
| 20260504041027 | 11 | 201 | 0.0 | 1.6 | 0.00 | 0.00 | 0.00 | 61 | 1016.5 |
| 20260504040927 | 11 | 201 | 0.0 | 1.6 | 0.00 | 0.00 | 0.00 | 61 | 1016.6 |
| 20260504040827 | 11 | 201 | 0.0 | 1.6 | 0.00 | 0.00 | 0.00 | 61 | 1016.6 |
| 20260504040727 | 11 | 201 | 0.0 | 1.6 | 0.00 | 0.00 | 0.00 | 61 | 1016.5 |
| 20260504040627 | 11 | 201 | 0.0 | 1.6 | 0.00 | 0.00 | 0.00 | 61 | 1016.6 |
| 20260504040528 | 11 | 201 | 0.0 | 1.6 | 0.00 | 0.00 | 0.00 | 61 | 1016.5 |
| 20260504040427 | 11 | 201 | 0.0 | 1.6 | 0.00 | 0.00 | 0.00 | 61 | 1016.6 |
| 20260504040328 | 11 | 201 | 0.0 | 1.6 | 0.00 | 0.00 | 0.00 | 61 | 1016.5 |
| 20260504040206 | 11 | 201 | 0.0 | 1.6 | 0.00 | 0.00 | 0.00 | 61 | 1016.5 |
| 20260504040105 | 11 | 201 | 0.0 | 1.6 | 0.00 | 0.00 | 0.00 | 61 | 1016.4 |
| 20260504040007 | 11 | 201 | 0.0 | 1.6 | 0.00 | 0.00 | 0.00 | 61 | 1016.4 |
| 20260504035904 | 11 | 201 | 0.0 | 1.6 | 0.00 | 0.00 | 0.00 | 61 | 1016.5 |
| 20260504035759 | 11 | 201 | 0.0 | 11.3 | 0.00 | 0.00 | 0.00 | 61 | 1016.4 |
| 20260504035657 | 11 | 201 | 0.0 | 11.3 | 0.00 | 0.00 | 0.00 | 61 | 1016.4 |
| 20260504035558 | 11 | 201 | 0.0 | 11.3 | 0.00 | 0.00 | 0.00 | 61 | 1016.3 |
| 20260504035456 | 11 | 201 | 0.0 | 11.3 | 0.00 | 0.00 | 0.00 | 61 | 1016.3 |
| 20260504035356 | 11 | 201 | 0.0 | 11.3 | 0.00 | 0.00 | 0.00 | 61 | 1016.3 |
| 20260504035255 | 11 | 201 | 0.0 | 11.3 | 0.00 | 0.00 | 0.00 | 61 | 1016.3 |
| 20260504035157 | 11 | 201 | 0.0 | 11.3 | 0.00 | 0.00 | 0.00 | 61 | 1016.3 |
| 20260504035054 | 11 | 201 | 0.0 | 11.3 | 0.00 | 0.00 | 0.00 | 61 | 1016.3 |
| 20260504034953 | 11 | 201 | 0.0 | 11.3 | 0.00 | 0.00 | 0.00 | 60 | 1016.3 |
| 20260504034854 | 11 | 201 | 0.0 | 11.3 | 0.00 | 0.00 | 0.00 | 60 | 1016.3 |
| 20260504034755 | 11 | 184 | 0.0 | 3.2 | 0.00 | 0.00 | 0.00 | 60 | 1016.3 |
| 20260504034653 | 11 | 184 | 0.0 | 1.6 | 0.00 | 0.00 | 0.00 | 60 | 1016.4 |
| 20260504034554 | 11 | 184 | 0.0 | 1.6 | 0.00 | 0.00 | 0.00 | 59 | 1016.4 |
| 20260504034451 | 11 | 184 | 0.0 | 1.6 | 0.00 | 0.00 | 0.00 | 59 | 1016.4 |
| 20260504034351 | 11 | 184 | 0.0 | 1.6 | 0.00 | 0.00 | 0.00 | 58 | 1016.5 |
| 20260504034250 | 11 | 184 | 0.0 | 1.6 | 0.00 | 0.00 | 0.00 | 58 | 1016.4 |
| 20260504034148 | 11 | 184 | 0.0 | 1.6 | 0.00 | 0.00 | 0.00 | 57 | 1016.5 |
| 20260504034049 | 11 | 184 | 0.0 | 1.6 | 0.00 | 0.00 | 0.00 | 57 | 1016.4 |
| 20260504033947 | 11 | 184 | 0.0 | 1.6 | 0.00 | 0.00 | 0.00 | 56 | 1016.4 |
| 20260504033846 | 11 | 184 | 0.0 | 1.6 | 0.00 | 0.00 | 0.00 | 56 | 1016.4 |
| 20260504033744 | 11 | 184 | 0.0 | 1.6 | 0.00 | 0.00 | 0.00 | 56 | 1016.4 |
| 20260504033641 | 11 | 184 | 0.0 | 1.6 | 0.00 | 0.00 | 0.00 | 56 | 1016.4 |
| 20260504033542 | 11 | 184 | 0.0 | 1.6 | 0.00 | 0.00 | 0.00 | 55 | 1016.4 |
| 20260504033439 | 11 | 184 | 0.0 | 1.6 | 0.00 | 0.00 | 0.00 | 54 | 1016.4 |
| 20260504033341 | 11 | 184 | 0.0 | 1.6 | 0.00 | 0.00 | 0.00 | 54 | 1016.4 |
| 20260504033239 | 11 | 184 | 0.0 | 1.6 | 0.00 | 0.00 | 0.00 | 54 | 1016.4 |
| 20260504033136 | 11 | 184 | 0.0 | 1.6 | 0.00 | 0.00 | 0.00 | 53 | 1016.3 |
| 20260504033035 | 11 | 184 | 0.0 | 1.6 | 0.00 | 0.00 | 0.00 | 53 | 1016.4 |
| 20260504032935 | 11 | 184 | 0.0 | 1.6 | 0.00 | 0.00 | 0.00 | 52 | 1016.5 |
| 20260504032835 | 11 | 184 | 0.0 | 1.6 | 0.00 | 0.00 | 0.00 | 52 | 1016.4 |
| 20260504032735 | 11 | 184 | 0.0 | 1.6 | 0.00 | 0.00 | 0.00 | 53 | 1016.4 |
| 20260504032637 | 11 | 184 | 0.0 | 0.0 | 0.00 | 0.00 | 0.00 | 53 | 1016.5 |
| 20260504032527 | 11 | 184 | 0.0 | 0.0 | 0.00 | 0.00 | 0.00 | 52 | 1016.5 |
| 20260504032426 | 11 | 184 | 0.0 | 0.0 | 0.00 | 0.00 | 0.00 | 52 | 1016.6 |
| 20260504032225 | 11 | 184 | 0.0 | 0.0 | 0.00 | 0.00 | 0.00 | 52 | 1016.6 |
| 20260504032126 | 11 | 184 | 0.0 | 0.0 | 0.00 | 0.00 | 0.00 | 52 | 1016.5 |
| 20260504032026 | 11 | 184 | 0.0 | 0.0 | 0.00 | 0.00 | 0.00 | 52 | 1016.6 |
| 20260504031924 | 11 | 184 | 0.0 | 1.6 | 0.00 | 0.00 | 0.00 | 52 | 1016.6 |
| 20260504031823 | 11 | 184 | 0.0 | 3.2 | 0.00 | 0.00 | 0.00 | 52 | 1016.6 |
| 20260504031722 | 11 | 184 | 0.0 | 3.2 | 0.00 | 0.00 | 0.00 | 52 | 1016.6 |
| 20260504031620 | 11 | 184 | 0.0 | 3.2 | 0.00 | 0.00 | 0.00 | 52 | 1016.7 |
| 20260504031515 | 11 | 184 | 0.0 | 3.2 | 0.00 | 0.00 | 0.00 | 52 | 1016.7 |
| 20260504031414 | 11 | 184 | 0.0 | 3.2 | 0.00 | 0.00 | 0.00 | 52 | 1016.6 |
| 20260504031314 | 11 | 184 | 0.0 | 3.2 | 0.00 | 0.00 | 0.00 | 52 | 1016.6 |
| 20260504031212 | 11 | 184 | 0.0 | 3.2 | 0.00 | 0.00 | 0.00 | 52 | 1016.7 |
| 20260504031112 | 11 | 184 | 0.0 | 3.2 | 0.00 | 0.00 | 0.00 | 53 | 1016.6 |
| 20260504031004 | 11 | 184 | 0.0 | 3.2 | 0.00 | 0.00 | 0.00 | 53 | 1016.6 |
| 20260504030902 | 11 | 184 | 0.0 | 3.2 | 0.00 | 0.00 | 0.00 | 53 | 1016.6 |
| 20260504030801 | 11 | 184 | 0.0 | 3.2 | 0.00 | 0.00 | 0.00 | 53 | 1016.6 |
| 20260504030702 | 11 | 184 | 0.0 | 3.2 | 0.00 | 0.00 | 0.00 | 53 | 1016.6 |
| 20260504030602 | 11 | 184 | 0.0 | 3.2 | 0.00 | 0.00 | 0.00 | 54 | 1016.6 |
| 20260504030500 | 11 | 184 | 0.0 | 3.2 | 0.00 | 0.00 | 0.00 | 53 | 1016.6 |
| 20260504030359 | 11 | 185 | 0.0 | 0.0 | 0.00 | 0.00 | 0.00 | 53 | 1016.6 |
| 20260504030301 | 11 | 185 | 0.0 | 0.0 | 0.00 | 0.00 | 0.00 | 53 | 1016.7 |
| 20260504030157 | 11 | 185 | 0.0 | 0.0 | 0.00 | 0.00 | 0.00 | 53 | 1016.7 |
| 20260504030056 | 11 | 185 | 0.0 | 0.0 | 0.00 | 0.00 | 0.00 | 53 | 1016.9 |
| 20260504025955 | 11 | 185 | 0.0 | 0.0 | 0.00 | 0.00 | 0.00 | 52 | 1016.7 |
| 20260504025854 | 11 | 185 | 0.0 | 0.0 | 0.00 | 0.00 | 0.00 | 52 | 1016.7 |
| 20260504025752 | 11 | 185 | 0.0 | 0.0 | 0.00 | 0.00 | 0.00 | 52 | 1016.7 |
| 20260504025651 | 11 | 185 | 0.0 | 0.0 | 0.00 | 0.00 | 0.00 | 52 | 1016.9 |
| 20260504025551 | 11 | 185 | 0.0 | 0.0 | 0.00 | 0.00 | 0.00 | 52 | 1016.9 |
| 20260504025446 | 11 | 185 | 0.0 | 0.0 | 0.00 | 0.00 | 0.00 | 52 | 1016.7 |
| 20260504025343 | 11 | 185 | 0.0 | 0.0 | 0.00 | 0.00 | 0.00 | 52 | 1016.9 |
| 20260504025244 | 11 | 185 | 0.0 | 0.0 | 0.00 | 0.00 | 0.00 | 52 | 1016.9 |
| 20260504025143 | 11 | 185 | 0.0 | 0.0 | 0.00 | 0.00 | 0.00 | 53 | 1017.0 |
| 20260504025044 | 11 | 185 | 0.0 | 0.0 | 0.00 | 0.00 | 0.00 | 53 | 1016.9 |
| 20260504024944 | 11 | 185 | 0.0 | 0.0 | 0.00 | 0.00 | 0.00 | 53 | 1016.7 |
| 20260504024843 | 11 | 185 | 0.0 | 0.0 | 0.00 | 0.00 | 0.00 | 53 | 1017.0 |
| 20260504024743 | 11 | 185 | 0.0 | 0.0 | 0.00 | 0.00 | 0.00 | 53 | 1016.9 |
| 20260504024644 | 11 | 185 | 0.0 | 0.0 | 0.00 | 0.00 | 0.00 | 53 | 1016.9 |
| 20260504024543 | 11 | 185 | 0.0 | 0.0 | 0.00 | 0.00 | 0.00 | 53 | 1016.9 |
| 20260504024444 | 11 | 185 | 0.0 | 0.0 | 0.00 | 0.00 | 0.00 | 53 | 1016.9 |
| 20260504024343 | 11 | 185 | 0.0 | 0.0 | 0.00 | 0.00 | 0.00 | 53 | 1016.9 |
| 20260504024242 | 11 | 185 | 0.0 | 0.0 | 0.00 | 0.00 | 0.00 | 53 | 1016.9 |
| 20260504024143 | 11 | 185 | 0.0 | 0.0 | 0.00 | 0.00 | 0.00 | 53 | 1016.9 |
| 20260504024043 | 11 | 185 | 0.0 | 0.0 | 0.00 | 0.00 | 0.00 | 53 | 1016.9 |
| 20260504023944 | 11 | 185 | 0.0 | 0.0 | 0.00 | 0.00 | 0.00 | 53 | 1016.9 |
| 20260504023843 | 11 | 185 | 0.0 | 0.0 | 0.00 | 0.00 | 0.00 | 53 | 1016.7 |
| 20260504023745 | 11 | 185 | 0.0 | 0.0 | 0.00 | 0.00 | 0.00 | 53 | 1016.9 |
| 20260504023643 | 11 | 185 | 0.0 | 0.0 | 0.00 | 0.00 | 0.00 | 53 | 1016.9 |
| 20260504023544 | 11 | 185 | 0.0 | 0.0 | 0.00 | 0.00 | 0.00 | 53 | 1016.7 |
| 20260504023443 | 11 | 185 | 0.0 | 0.0 | 0.00 | 0.00 | 0.00 | 53 | 1016.7 |
| 20260504023344 | 11 | 185 | 0.0 | 0.0 | 0.00 | 0.00 | 0.00 | 53 | 1016.9 |
| 20260504023243 | 11 | 185 | 0.0 | 0.0 | 0.00 | 0.00 | 0.00 | 53 | 1016.9 |
| 20260504023144 | 11 | 185 | 0.0 | 0.0 | 0.00 | 0.00 | 0.00 | 53 | 1016.9 |
| 20260504023043 | 11 | 185 | 0.0 | 0.0 | 0.00 | 0.00 | 0.00 | 53 | 1016.9 |
| 20260504022944 | 11 | 185 | 0.0 | 0.0 | 0.00 | 0.00 | 0.00 | 53 | 1016.9 |
| 20260504022844 | 11 | 185 | 0.0 | 0.0 | 0.00 | 0.00 | 0.00 | 53 | 1016.9 |
| 20260504022743 | 11 | 185 | 0.0 | 0.0 | 0.00 | 0.00 | 0.00 | 53 | 1016.9 |
| 20260504022643 | 11 | 185 | 0.0 | 0.0 | 0.00 | 0.00 | 0.00 | 53 | 1016.9 |
| 20260504022544 | 11 | 185 | 0.0 | 0.0 | 0.00 | 0.00 | 0.00 | 53 | 1017.0 |
| 20260504022443 | 11 | 185 | 0.0 | 0.0 | 0.00 | 0.00 | 0.00 | 53 | 1016.9 |
| 20260504022342 | 11 | 185 | 0.0 | 0.0 | 0.00 | 0.00 | 0.00 | 52 | 1016.9 |
| 20260504022244 | 11 | 185 | 0.0 | 0.0 | 0.00 | 0.00 | 0.00 | 53 | 1016.9 |
| 20260504022140 | 11 | 185 | 0.0 | 0.0 | 0.00 | 0.00 | 0.00 | 53 | 1016.9 |
| 20260504022039 | 11 | 185 | 0.0 | 0.0 | 0.00 | 0.00 | 0.00 | 53 | 1016.9 |
| 20260504021940 | 11 | 185 | 0.0 | 0.0 | 0.00 | 0.00 | 0.00 | 52 | 1016.9 |
| 20260504021839 | 11 | 185 | 0.0 | 0.0 | 0.00 | 0.00 | 0.00 | 52 | 1016.9 |
| 20260504021740 | 11 | 185 | 0.0 | 0.0 | 0.00 | 0.00 | 0.00 | 52 | 1016.9 |
| 20260504021639 | 12 | 185 | 0.0 | 0.0 | 0.00 | 0.00 | 0.00 | 52 | 1016.7 |
| 20260504021539 | 11 | 185 | 0.0 | 0.0 | 0.00 | 0.00 | 0.00 | 53 | 1016.7 |
| 20260504021439 | 11 | 185 | 0.0 | 0.0 | 0.00 | 0.00 | 0.00 | 52 | 1016.7 |
| 20260504021339 | 12 | 185 | 0.0 | 0.0 | 0.00 | 0.00 | 0.00 | 52 | 1016.7 |
| 20260504021241 | 12 | 185 | 0.0 | 0.0 | 0.00 | 0.00 | 0.00 | 53 | 1016.7 |
| 20260504021139 | 12 | 185 | 0.0 | 0.0 | 0.00 | 0.00 | 0.00 | 53 | 1016.6 |
| 20260504021039 | 12 | 185 | 0.0 | 0.0 | 0.00 | 0.00 | 0.00 | 53 | 1016.6 |
| 20260504020939 | 12 | 185 | 0.0 | 0.0 | 0.00 | 0.00 | 0.00 | 53 | 1016.6 |
| 20260504020841 | 12 | 185 | 0.0 | 0.0 | 0.00 | 0.00 | 0.00 | 52 | 1016.6 |
| 20260504020740 | 12 | 185 | 0.0 | 0.0 | 0.00 | 0.00 | 0.00 | 53 | 1016.6 |
| 20260504020639 | 12 | 185 | 0.0 | 0.0 | 0.00 | 0.00 | 0.00 | 53 | 1016.6 |
| 20260504020539 | 12 | 185 | 0.0 | 0.0 | 0.00 | 0.00 | 0.00 | 52 | 1016.7 |
| 20260504020440 | 12 | 185 | 0.0 | 0.0 | 0.00 | 0.00 | 0.00 | 52 | 1016.6 |
| 20260504020339 | 12 | 185 | 0.0 | 0.0 | 0.00 | 0.00 | 0.00 | 52 | 1016.6 |
| 20260504020239 | 12 | 185 | 0.0 | 0.0 | 0.00 | 0.00 | 0.00 | 52 | 1016.6 |
| 20260504020139 | 12 | 185 | 0.0 | 0.0 | 0.00 | 0.00 | 0.00 | 52 | 1016.5 |
| 20260504020040 | 12 | 185 | 0.0 | 0.0 | 0.00 | 0.00 | 0.00 | 52 | 1016.5 |
| 20260504015940 | 12 | 185 | 0.0 | 0.0 | 0.00 | 0.00 | 0.00 | 52 | 1016.5 |
| 20260504015840 | 12 | 185 | 0.0 | 0.0 | 0.00 | 0.00 | 0.00 | 53 | 1016.6 |
| 20260504015739 | 12 | 185 | 0.0 | 0.0 | 0.00 | 0.00 | 0.00 | 52 | 1016.5 |
| 20260504015640 | 12 | 185 | 0.0 | 0.0 | 0.00 | 0.00 | 0.00 | 52 | 1016.6 |
| 20260504015539 | 12 | 185 | 0.0 | 1.6 | 0.00 | 0.00 | 0.00 | 52 | 1016.5 |
| 20260504015440 | 12 | 185 | 0.0 | 3.2 | 0.00 | 0.00 | 0.00 | 52 | 1016.5 |
| 20260504015339 | 12 | 185 | 0.0 | 3.2 | 0.00 | 0.00 | 0.00 | 52 | 1016.5 |
| 20260504015239 | 12 | 185 | 0.0 | 3.2 | 0.00 | 0.00 | 0.00 | 52 | 1016.4 |
| 20260504015140 | 12 | 185 | 1.6 | 3.2 | 0.00 | 0.00 | 0.00 | 52 | 1016.5 |
| 20260504015039 | 12 | 185 | 1.6 | 3.2 | 0.00 | 0.00 | 0.00 | 52 | 1016.4 |
| 20260504014940 | 12 | 185 | 1.6 | 3.2 | 0.00 | 0.00 | 0.00 | 52 | 1016.4 |
| 20260504014836 | 12 | 185 | 1.6 | 3.2 | 0.00 | 0.00 | 0.00 | 52 | 1016.4 |
| 20260504014736 | 12 | 185 | 1.6 | 3.2 | 0.00 | 0.00 | 0.00 | 52 | 1016.3 |
| 20260504014636 | 12 | 185 | 1.6 | 3.2 | 0.00 | 0.00 | 0.00 | 51 | 1016.2 |
| 20260504014535 | 12 | 185 | 0.0 | 3.2 | 0.00 | 0.00 | 0.00 | 51 | 1016.2 |
| 20260504014436 | 12 | 185 | 0.0 | 3.2 | 0.00 | 0.00 | 0.00 | 51 | 1016.2 |
| 20260504014336 | 12 | 185 | 0.0 | 3.2 | 0.00 | 0.00 | 0.00 | 51 | 1016.2 |
| 20260504014234 | 12 | 186 | 0.0 | 4.8 | 0.00 | 0.00 | 0.00 | 51 | 1016.1 |
| 20260504014136 | 12 | 186 | 0.0 | 4.8 | 0.00 | 0.00 | 0.00 | 52 | 1016.1 |
| 20260504014037 | 12 | 186 | 1.6 | 4.8 | 0.00 | 0.00 | 0.00 | 52 | 1016.1 |
| 20260504013935 | 12 | 186 | 1.6 | 4.8 | 0.00 | 0.00 | 0.00 | 52 | 1016.1 |
| 20260504013834 | 12 | 186 | 1.6 | 4.8 | 0.00 | 0.00 | 0.00 | 52 | 1016.1 |
| 20260504013735 | 12 | 186 | 1.6 | 4.8 | 0.00 | 0.00 | 0.00 | 51 | 1016.0 |
| 20260504013637 | 12 | 186 | 1.6 | 4.8 | 0.00 | 0.00 | 0.00 | 51 | 1016.0 |
| 20260504013534 | 12 | 186 | 1.6 | 4.8 | 0.00 | 0.00 | 0.00 | 51 | 1016.0 |
| 20260504013435 | 12 | 186 | 1.6 | 4.8 | 0.00 | 0.00 | 0.00 | 51 | 1016.0 |
| 20260504013335 | 12 | 186 | 1.6 | 4.8 | 0.00 | 0.00 | 0.00 | 51 | 1016.1 |
| 20260504013237 | 12 | 186 | 1.6 | 4.8 | 0.00 | 0.00 | 0.00 | 51 | 1016.0 |
| 20260504013135 | 12 | 186 | 1.6 | 4.8 | 0.00 | 0.00 | 0.00 | 50 | 1016.0 |
| 20260504013035 | 12 | 185 | 1.6 | 4.8 | 0.00 | 0.00 | 0.00 | 51 | 1016.0 |
| 20260504012935 | 12 | 185 | 1.6 | 4.8 | 0.00 | 0.00 | 0.00 | 51 | 1015.9 |
| 20260504012836 | 12 | 186 | 1.6 | 4.8 | 0.00 | 0.00 | 0.00 | 51 | 1015.9 |
| 20260504012736 | 12 | 186 | 1.6 | 4.8 | 0.00 | 0.00 | 0.00 | 51 | 1015.9 |
| 20260504012635 | 12 | 185 | 1.6 | 4.8 | 0.00 | 0.00 | 0.00 | 51 | 1015.9 |
| 20260504012535 | 12 | 186 | 1.6 | 4.8 | 0.00 | 0.00 | 0.00 | 51 | 1015.9 |
| 20260504012435 | 12 | 186 | 1.6 | 4.8 | 0.00 | 0.00 | 0.00 | 51 | 1016.0 |
| 20260504012336 | 12 | 186 | 1.6 | 4.8 | 0.00 | 0.00 | 0.00 | 51 | 1015.9 |
| 20260504012236 | 12 | 186 | 1.6 | 6.4 | 0.00 | 0.00 | 0.00 | 51 | 1016.0 |
| 20260504012137 | 12 | 186 | 1.6 | 6.4 | 0.00 | 0.00 | 0.00 | 51 | 1015.9 |
| 20260504012036 | 12 | 186 | 1.6 | 6.4 | 0.00 | 0.00 | 0.00 | 51 | 1016.0 |
| 20260504011936 | 12 | 186 | 1.6 | 6.4 | 0.00 | 0.00 | 0.00 | 51 | 1016.0 |
| 20260504011835 | 12 | 188 | 1.6 | 6.4 | 0.00 | 0.00 | 0.00 | 52 | 1016.0 |
| 20260504011735 | 12 | 188 | 1.6 | 6.4 | 0.00 | 0.00 | 0.00 | 51 | 1016.0 |
| 20260504011636 | 12 | 188 | 1.6 | 6.4 | 0.00 | 0.00 | 0.00 | 51 | 1016.0 |
| 20260504011531 | 12 | 188 | 1.6 | 6.4 | 0.00 | 0.00 | 0.00 | 51 | 1016.0 |
| 20260504011430 | 12 | 188 | 1.6 | 6.4 | 0.00 | 0.00 | 0.00 | 51 | 1016.0 |
| 20260504011332 | 12 | 186 | 1.6 | 6.4 | 0.00 | 0.00 | 0.00 | 51 | 1016.0 |
| 20260504011230 | 12 | 188 | 1.6 | 6.4 | 0.00 | 0.00 | 0.00 | 51 | 1015.9 |
| 20260504011132 | 12 | 188 | 1.6 | 6.4 | 0.00 | 0.00 | 0.00 | 51 | 1015.9 |
| 20260504011031 | 12 | 189 | 1.6 | 6.4 | 0.00 | 0.00 | 0.00 | 51 | 1016.0 |
| 20260504010932 | 12 | 188 | 1.6 | 6.4 | 0.00 | 0.00 | 0.00 | 51 | 1015.9 |
| 20260504010833 | 12 | 188 | 1.6 | 6.4 | 0.00 | 0.00 | 0.00 | 50 | 1015.8 |
| 20260504010732 | 12 | 184 | 1.6 | 6.4 | 0.00 | 0.00 | 0.00 | 51 | 1015.9 |
| 20260504010632 | 12 | 184 | 1.6 | 6.4 | 0.00 | 0.00 | 0.00 | 51 | 1015.8 |
| 20260504010530 | 12 | 185 | 1.6 | 6.4 | 0.00 | 0.00 | 0.00 | 51 | 1015.8 |
| 20260504010432 | 12 | 185 | 1.6 | 6.4 | 0.00 | 0.00 | 0.00 | 51 | 1015.9 |
| 20260504010331 | 12 | 185 | 1.6 | 6.4 | 0.00 | 0.00 | 0.00 | 51 | 1015.8 |
| 20260504010230 | 12 | 207 | 1.6 | 6.4 | 0.00 | 0.00 | 0.00 | 51 | 1015.7 |
| 20260504010131 | 12 | 177 | 1.6 | 4.8 | 0.00 | 0.00 | 0.00 | 52 | 1015.9 |
| 20260504010031 | 12 | 177 | 1.6 | 4.8 | 0.00 | 0.00 | 0.00 | 51 | 1015.9 |
| 20260504005931 | 12 | 177 | 1.6 | 8.0 | 0.00 | 0.00 | 0.00 | 51 | 1015.8 |
| 20260504005832 | 12 | 177 | 1.6 | 8.0 | 0.00 | 0.00 | 0.00 | 52 | 1015.8 |
| 20260504005731 | 12 | 179 | 3.2 | 8.0 | 0.00 | 0.00 | 0.00 | 51 | 1015.8 |
| 20260504005632 | 12 | 179 | 3.2 | 8.0 | 0.00 | 0.00 | 0.00 | 50 | 1015.7 |
| 20260504005531 | 12 | 175 | 3.2 | 8.0 | 0.00 | 0.00 | 0.00 | 50 | 1015.8 |
| 20260504005432 | 12 | 175 | 3.2 | 8.0 | 0.00 | 0.00 | 0.00 | 50 | 1015.8 |
| 20260504005331 | 13 | 175 | 3.2 | 8.0 | 0.00 | 0.00 | 0.00 | 50 | 1015.8 |
| 20260504005233 | 12 | 175 | 3.2 | 8.0 | 0.00 | 0.00 | 0.00 | 50 | 1015.7 |
| 20260504005131 | 13 | 175 | 3.2 | 8.0 | 0.00 | 0.00 | 0.00 | 50 | 1015.8 |
| 20260504005032 | 13 | 175 | 3.2 | 8.0 | 0.00 | 0.00 | 0.00 | 50 | 1015.8 |
| 20260504004932 | 13 | 169 | 3.2 | 9.7 | 0.00 | 0.00 | 0.00 | 50 | 1015.8 |
| 20260504004831 | 13 | 168 | 3.2 | 9.7 | 0.00 | 0.00 | 0.00 | 49 | 1015.7 |
| 20260504004730 | 13 | 168 | 3.2 | 9.7 | 0.00 | 0.00 | 0.00 | 49 | 1015.7 |
| 20260504004631 | 13 | 157 | 3.2 | 9.7 | 0.00 | 0.00 | 0.00 | 49 | 1015.7 |
| 20260504004531 | 13 | 157 | 3.2 | 9.7 | 0.00 | 0.00 | 0.00 | 49 | 1015.7 |
| 20260504004431 | 13 | 155 | 3.2 | 9.7 | 0.00 | 0.00 | 0.00 | 48 | 1015.7 |
| 20260504004331 | 13 | 155 | 4.8 | 9.7 | 0.00 | 0.00 | 0.00 | 48 | 1015.7 |
| 20260504004227 | 13 | 156 | 4.8 | 9.7 | 0.00 | 0.00 | 0.00 | 48 | 1015.7 |
| 20260504004127 | 13 | 155 | 4.8 | 9.7 | 0.00 | 0.00 | 0.00 | 48 | 1015.8 |
| 20260504004026 | 13 | 154 | 4.8 | 9.7 | 0.00 | 0.00 | 0.00 | 48 | 1015.8 |
| 20260504003927 | 13 | 161 | 4.8 | 8.0 | 0.00 | 0.00 | 0.00 | 48 | 1015.7 |
| 20260504003827 | 13 | 160 | 4.8 | 8.0 | 0.00 | 0.00 | 0.00 | 48 | 1015.6 |
| 20260504003727 | 13 | 166 | 3.2 | 8.0 | 0.00 | 0.00 | 0.00 | 48 | 1015.7 |
| 20260504003627 | 13 | 166 | 4.8 | 8.0 | 0.00 | 0.00 | 0.00 | 48 | 1015.8 |
| 20260504003527 | 13 | 166 | 3.2 | 8.0 | 0.00 | 0.00 | 0.00 | 48 | 1015.6 |
| 20260504003426 | 13 | 163 | 3.2 | 8.0 | 0.00 | 0.00 | 0.00 | 47 | 1015.8 |
| 20260504003328 | 13 | 169 | 3.2 | 6.4 | 0.00 | 0.00 | 0.00 | 47 | 1015.7 |
| 20260504003226 | 13 | 180 | 3.2 | 4.8 | 0.00 | 0.00 | 0.00 | 47 | 1015.7 |
| 20260504003123 | 13 | 182 | 3.2 | 6.4 | 0.00 | 0.00 | 0.00 | 46 | 1015.6 |
| 20260504003020 | 13 | 187 | 3.2 | 6.4 | 0.00 | 0.00 | 0.00 | 46 | 1015.6 |
| 20260504002919 | 13 | 187 | 3.2 | 6.4 | 0.00 | 0.00 | 0.00 | 46 | 1015.7 |
| 20260504002816 | 13 | 187 | 3.2 | 6.4 | 0.00 | 0.00 | 0.00 | 46 | 1015.6 |
| 20260504002718 | 13 | 188 | 3.2 | 6.4 | 0.00 | 0.00 | 0.00 | 46 | 1015.6 |
| 20260504002617 | 13 | 188 | 3.2 | 6.4 | 0.00 | 0.00 | 0.00 | 46 | 1015.7 |
| 20260504002511 | 13 | 188 | 3.2 | 6.4 | 0.00 | 0.00 | 0.00 | 45 | 1015.6 |
| 20260504002408 | 13 | 188 | 3.2 | 6.4 | 0.00 | 0.00 | 0.00 | 45 | 1015.6 |
| 20260504002307 | 13 | 189 | 3.2 | 6.4 | 0.00 | 0.00 | 0.00 | 46 | 1015.6 |
| 20260504002207 | 13 | 188 | 3.2 | 6.4 | 0.00 | 0.00 | 0.00 | 46 | 1015.6 |
| 20260504002104 | 13 | 200 | 3.2 | 6.4 | 0.00 | 0.00 | 0.00 | 45 | 1015.5 |
| 20260504002004 | 13 | 244 | 3.2 | 4.8 | 0.00 | 0.00 | 0.00 | 45 | 1015.6 |
| 20260504001902 | 13 | 245 | 1.6 | 4.8 | 0.00 | 0.00 | 0.00 | 45 | 1015.6 |
| 20260504001702 | 13 | 245 | 1.6 | 3.2 | 0.00 | 0.00 | 0.00 | 45 | 1015.6 |
| 20260504001602 | 13 | 245 | 1.6 | 3.2 | 0.00 | 0.00 | 0.00 | 45 | 1015.5 |
| 20260504001502 | 13 | 115 | 1.6 | 3.2 | 0.00 | 0.00 | 0.00 | 44 | 1015.6 |
| 20260504001400 | 13 | 115 | 1.6 | 3.2 | 0.00 | 0.00 | 0.00 | 45 | 1015.5 |
| 20260504001301 | 13 | 115 | 1.6 | 3.2 | 0.00 | 0.00 | 0.00 | 45 | 1015.5 |
| 20260504001200 | 13 | 115 | 1.6 | 3.2 | 0.00 | 0.00 | 0.00 | 44 | 1015.6 |
| 20260504001057 | 13 | 113 | 0.0 | 3.2 | 0.00 | 0.00 | 0.00 | 44 | 1015.5 |
| 20260504000950 | 14 | 141 | 0.0 | 3.2 | 0.00 | 0.00 | 0.00 | 44 | 1015.5 |
| 20260504000850 | 14 | 141 | 0.0 | 3.2 | 0.00 | 0.00 | 0.00 | 44 | 1015.6 |
| 20260504000751 | 14 | 141 | 0.0 | 3.2 | 0.00 | 0.00 | 0.00 | 44 | 1015.5 |
| 20260504000652 | 14 | 141 | 0.0 | 3.2 | 0.00 | 0.00 | 0.00 | 44 | 1015.6 |
| 20260504000551 | 14 | 141 | 0.0 | 0.0 | 0.00 | 0.00 | 0.00 | 44 | 1015.5 |
| 20260504000450 | 14 | 141 | 0.0 | 1.6 | 0.00 | 0.00 | 0.00 | 44 | 1015.5 |
| 20260504000349 | 14 | 141 | 0.0 | 3.2 | 0.00 | 0.00 | 0.00 | 44 | 1015.5 |
| 20260504000248 | 14 | 141 | 0.0 | 3.2 | 0.00 | 0.00 | 0.00 | 44 | 1015.5 |
| 20260504000148 | 14 | 141 | 0.0 | 3.2 | 0.00 | 0.00 | 0.00 | 44 | 1015.5 |
| 20260504000049 | 14 | 141 | 0.0 | 3.2 | 0.00 | 0.00 | 0.00 | 44 | 1015.5 |
| 20260503235947 | 14 | 141 | 1.6 | 3.2 | 0.00 | 0.00 | 0.00 | 44 | 1015.5 |
| 20260503235845 | 14 | 141 | 1.6 | 3.2 | 0.00 | 0.00 | 0.00 | 44 | 1015.5 |
| 20260503235744 | 14 | 141 | 1.6 | 3.2 | 0.00 | 0.00 | 0.00 | 44 | 1015.5 |
| 20260503235643 | 14 | 141 | 1.6 | 3.2 | 0.00 | 0.00 | 0.00 | 44 | 1015.6 |
| 20260503235542 | 14 | 141 | 1.6 | 3.2 | 0.00 | 0.00 | 0.00 | 44 | 1015.5 |
| 20260503235440 | 14 | 141 | 1.6 | 3.2 | 0.00 | 0.00 | 0.00 | 44 | 1015.5 |
| 20260503235339 | 15 | 141 | 1.6 | 3.2 | 0.00 | 0.00 | 0.00 | 44 | 1015.6 |
| 20260503235239 | 15 | 141 | 1.6 | 4.8 | 0.00 | 0.00 | 0.00 | 44 | 1015.6 |
| 20260503235138 | 15 | 141 | 1.6 | 4.8 | 0.00 | 0.00 | 0.00 | 44 | 1015.5 |
| 20260503235038 | 15 | 141 | 1.6 | 4.8 | 0.00 | 0.00 | 0.00 | 44 | 1015.5 |
| 20260503234940 | 15 | 87 | 1.6 | 4.8 | 0.00 | 0.00 | 0.00 | 44 | 1015.6 |
| 20260503234838 | 15 | 130 | 1.6 | 4.8 | 0.00 | 0.00 | 0.00 | 44 | 1015.5 |
| 20260503234736 | 15 | 130 | 1.6 | 6.4 | 0.00 | 0.00 | 0.00 | 44 | 1015.4 |
| 20260503234637 | 15 | 130 | 3.2 | 6.4 | 0.00 | 0.00 | 0.00 | 44 | 1015.4 |
| 20260503234536 | 15 | 130 | 3.2 | 8.0 | 0.00 | 0.00 | 0.00 | 43 | 1015.4 |
| 20260503234435 | 15 | 130 | 3.2 | 8.0 | 0.00 | 0.00 | 0.00 | 43 | 1015.4 |
| 20260503234331 | 15 | 130 | 3.2 | 8.0 | 0.00 | 0.00 | 0.00 | 44 | 1015.5 |
| 20260503234225 | 15 | 99 | 3.2 | 8.0 | 0.00 | 0.00 | 0.00 | 43 | 1015.5 |
| 20260503234124 | 15 | 140 | 3.2 | 8.0 | 0.00 | 0.00 | 0.00 | 43 | 1015.4 |
| 20260503234025 | 15 | 140 | 3.2 | 8.0 | 0.00 | 0.00 | 0.00 | 43 | 1015.4 |
| 20260503233924 | 15 | 144 | 3.2 | 8.0 | 0.00 | 0.00 | 0.00 | 41 | 1015.4 |
| 20260503233824 | 15 | 167 | 3.2 | 8.0 | 0.00 | 0.00 | 0.00 | 41 | 1015.4 |
| 20260503233720 | 15 | 167 | 3.2 | 8.0 | 0.00 | 0.00 | 0.00 | 41 | 1015.3 |
| 20260503233618 | 15 | 167 | 3.2 | 8.0 | 0.00 | 0.00 | 0.00 | 40 | 1015.4 |
| 20260503233519 | 16 | 159 | 3.2 | 8.0 | 0.00 | 0.00 | 0.00 | 40 | 1015.4 |
| 20260503233418 | 16 | 160 | 3.2 | 8.0 | 0.00 | 0.00 | 0.00 | 40 | 1015.3 |
| 20260503233318 | 16 | 159 | 3.2 | 8.0 | 0.00 | 0.00 | 0.00 | 40 | 1015.3 |
| 20260503233219 | 16 | 159 | 3.2 | 8.0 | 0.00 | 0.00 | 0.00 | 40 | 1015.3 |
| 20260503233118 | 16 | 205 | 3.2 | 6.4 | 0.00 | 0.00 | 0.00 | 39 | 1015.4 |
| 20260503233018 | 16 | 211 | 3.2 | 8.0 | 0.00 | 0.00 | 0.00 | 39 | 1015.4 |
| 20260503232919 | 16 | 161 | 3.2 | 8.0 | 0.00 | 0.00 | 0.00 | 40 | 1015.4 |
| 20260503232819 | 16 | 161 | 3.2 | 8.0 | 0.00 | 0.00 | 0.00 | 39 | 1015.4 |
| 20260503232718 | 16 | 161 | 3.2 | 8.0 | 0.00 | 0.00 | 0.00 | 40 | 1015.4 |
| 20260503232614 | 16 | 161 | 1.6 | 8.0 | 0.00 | 0.00 | 0.00 | 39 | 1015.3 |
| 20260503232512 | 16 | 161 | 1.6 | 8.0 | 0.00 | 0.00 | 0.00 | 39 | 1015.4 |
| 20260503232412 | 16 | 161 | 1.6 | 8.0 | 0.00 | 0.00 | 0.00 | 40 | 1015.4 |
| 20260503232312 | 16 | 161 | 1.6 | 8.0 | 0.00 | 0.00 | 0.00 | 39 | 1015.4 |
| 20260503232212 | 16 | 163 | 1.6 | 8.0 | 0.00 | 0.00 | 0.00 | 39 | 1015.4 |
| 20260503232111 | 16 | 159 | 1.6 | 8.0 | 0.00 | 0.00 | 0.00 | 39 | 1015.4 |
| 20260503232011 | 16 | 157 | 0.0 | 4.8 | 0.00 | 0.00 | 0.00 | 40 | 1015.3 |
| 20260503231911 | 16 | 157 | 0.0 | 4.8 | 0.00 | 0.00 | 0.00 | 39 | 1015.4 |
| 20260503231811 | 16 | 157 | 0.0 | 3.2 | 0.00 | 0.00 | 0.00 | 39 | 1015.3 |
| 20260503231711 | 16 | 157 | 0.0 | 3.2 | 0.00 | 0.00 | 0.00 | 39 | 1015.4 |
| 20260503231611 | 16 | 157 | 0.0 | 0.0 | 0.00 | 0.00 | 0.00 | 39 | 1015.3 |
| 20260503231512 | 16 | 148 | 0.0 | 0.0 | 0.00 | 0.00 | 0.00 | 39 | 1015.4 |
| 20260503231408 | 16 | 146 | 0.0 | 0.0 | 0.00 | 0.00 | 0.00 | 40 | 1015.4 |
| 20260503231307 | 16 | 144 | 0.0 | 0.0 | 0.00 | 0.00 | 0.00 | 39 | 1015.4 |
| 20260503231207 | 16 | 144 | 0.0 | 0.0 | 0.00 | 0.00 | 0.00 | 39 | 1015.4 |
| 20260503231104 | 16 | 144 | 0.0 | 0.0 | 0.00 | 0.00 | 0.00 | 40 | 1015.4 |
| 20260503231002 | 16 | 143 | 0.0 | 0.0 | 0.00 | 0.00 | 0.00 | 40 | 1015.4 |
| 20260503230904 | 16 | 143 | 0.0 | 0.0 | 0.00 | 0.00 | 0.00 | 40 | 1015.4 |
| 20260503230800 | 16 | 143 | 0.0 | 0.0 | 0.00 | 0.00 | 0.00 | 39 | 1015.4 |
| 20260503230701 | 16 | 143 | 0.0 | 0.0 | 0.00 | 0.00 | 0.00 | 39 | 1015.4 |
| 20260503230559 | 16 | 143 | 0.0 | 0.0 | 0.00 | 0.00 | 0.00 | 40 | 1015.5 |
| 20260503230457 | 16 | 143 | 0.0 | 0.0 | 0.00 | 0.00 | 0.00 | 39 | 1015.4 |
| 20260503230358 | 16 | 143 | 0.0 | 0.0 | 0.00 | 0.00 | 0.00 | 39 | 1015.4 |
| 20260503230259 | 16 | 143 | 0.0 | 0.0 | 0.00 | 0.00 | 0.00 | 38 | 1015.4 |
| 20260503230158 | 16 | 143 | 0.0 | 0.0 | 0.00 | 0.00 | 0.00 | 38 | 1015.4 |
| 20260503230059 | 16 | 144 | 0.0 | 0.0 | 0.00 | 0.00 | 0.00 | 39 | 1015.4 |
| 20260503225958 | 16 | 144 | 0.0 | 0.0 | 0.00 | 0.00 | 0.00 | 38 | 1015.4 |
| 20260503225857 | 16 | 142 | 0.0 | 0.0 | 0.00 | 0.00 | 0.00 | 38 | 1015.4 |
| 20260503225757 | 16 | 142 | 0.0 | 0.0 | 0.00 | 0.00 | 0.00 | 38 | 1015.4 |
| 20260503225656 | 16 | 140 | 0.0 | 0.0 | 0.00 | 0.00 | 0.00 | 38 | 1015.3 |
| 20260503225557 | 16 | 130 | 0.0 | 0.0 | 0.00 | 0.00 | 0.00 | 39 | 1015.4 |
| 20260503225456 | 16 | 130 | 0.0 | 0.0 | 0.00 | 0.00 | 0.00 | 38 | 1015.4 |
| 20260503225357 | 16 | 128 | 0.0 | 0.0 | 0.00 | 0.00 | 0.00 | 39 | 1015.4 |
| 20260503225257 | 16 | 183 | 0.0 | 0.0 | 0.00 | 0.00 | 0.00 | 38 | 1015.4 |
| 20260503225155 | 16 | 186 | 0.0 | 0.0 | 0.00 | 0.00 | 0.00 | 38 | 1015.4 |
| 20260503225054 | 16 | 184 | 0.0 | 0.0 | 0.00 | 0.00 | 0.00 | 38 | 1015.4 |
| 20260503224953 | 16 | 179 | 0.0 | 0.0 | 0.00 | 0.00 | 0.00 | 40 | 1015.4 |
| 20260503224850 | 16 | 179 | 0.0 | 0.0 | 0.00 | 0.00 | 0.00 | 39 | 1015.4 |
| 20260503224742 | 16 | 179 | 0.0 | 8.0 | 0.00 | 0.00 | 0.00 | 38 | 1015.4 |
| 20260503224640 | 16 | 179 | 1.6 | 8.0 | 0.00 | 0.00 | 0.00 | 38 | 1015.3 |
| 20260503224540 | 16 | 177 | 1.6 | 8.0 | 0.00 | 0.00 | 0.00 | 39 | 1015.4 |
| 20260503224440 | 16 | 174 | 1.6 | 8.0 | 0.00 | 0.00 | 0.00 | 40 | 1015.4 |
| 20260503224341 | 16 | 174 | 1.6 | 8.0 | 0.00 | 0.00 | 0.00 | 39 | 1015.4 |
| 20260503224241 | 16 | 174 | 1.6 | 9.7 | 0.00 | 0.00 | 0.00 | 38 | 1015.4 |
| 20260503224137 | 16 | 175 | 1.6 | 9.7 | 0.00 | 0.00 | 0.00 | 37 | 1015.4 |
| 20260503224038 | 17 | 142 | 1.6 | 9.7 | 0.00 | 0.00 | 0.00 | 38 | 1015.5 |
| 20260503223937 | 17 | 142 | 1.6 | 9.7 | 0.00 | 0.00 | 0.00 | 38 | 1015.4 |
| 20260503223835 | 17 | 129 | 1.6 | 9.7 | 0.00 | 0.00 | 0.00 | 38 | 1015.4 |
| 20260503223732 | 17 | 173 | 1.6 | 9.7 | 0.00 | 0.00 | 0.00 | 38 | 1015.4 |
| 20260503223633 | 17 | 328 | 1.6 | 9.7 | 0.00 | 0.00 | 0.00 | 39 | 1015.4 |
| 20260503223532 | 17 | 242 | 1.6 | 9.7 | 0.00 | 0.00 | 0.00 | 38 | 1015.5 |
| 20260503223430 | 17 | 242 | 1.6 | 9.7 | 0.00 | 0.00 | 0.00 | 37 | 1015.4 |
| 20260503223329 | 17 | 241 | 1.6 | 9.7 | 0.00 | 0.00 | 0.00 | 39 | 1015.4 |
| 20260503223221 | 17 | 192 | 1.6 | 9.7 | 0.00 | 0.00 | 0.00 | 38 | 1015.4 |
| 20260503223119 | 17 | 190 | 1.6 | 9.7 | 0.00 | 0.00 | 0.00 | 37 | 1015.5 |
| 20260503223020 | 17 | 190 | 1.6 | 9.7 | 0.00 | 0.00 | 0.00 | 37 | 1015.5 |
| 20260503222919 | 17 | 191 | 1.6 | 9.7 | 0.00 | 0.00 | 0.00 | 37 | 1015.4 |
| 20260503222819 | 17 | 191 | 1.6 | 9.7 | 0.00 | 0.00 | 0.00 | 36 | 1015.5 |
| 20260503222713 | 17 | 191 | 1.6 | 9.7 | 0.00 | 0.00 | 0.00 | 36 | 1015.4 |
| 20260503222612 | 17 | 191 | 3.2 | 9.7 | 0.00 | 0.00 | 0.00 | 36 | 1015.5 |
| 20260503222513 | 17 | 194 | 3.2 | 9.7 | 0.00 | 0.00 | 0.00 | 36 | 1015.4 |
| 20260503222413 | 17 | 190 | 1.6 | 8.0 | 0.00 | 0.00 | 0.00 | 37 | 1015.5 |
| 20260503222313 | 17 | 297 | 1.6 | 8.0 | 0.00 | 0.00 | 0.00 | 36 | 1015.5 |
| 20260503222206 | 17 | 299 | 1.6 | 8.0 | 0.00 | 0.00 | 0.00 | 36 | 1015.5 |
| 20260503222106 | 17 | 310 | 1.6 | 8.0 | 0.00 | 0.00 | 0.00 | 36 | 1015.4 |
| 20260503222007 | 17 | 291 | 1.6 | 8.0 | 0.00 | 0.00 | 0.00 | 37 | 1015.5 |
| 20260503221907 | 17 | 289 | 1.6 | 8.0 | 0.00 | 0.00 | 0.00 | 36 | 1015.5 |
| 20260503221807 | 17 | 290 | 1.6 | 8.0 | 0.00 | 0.00 | 0.00 | 35 | 1015.5 |
| 20260503221657 | 17 | 289 | 1.6 | 8.0 | 0.00 | 0.00 | 0.00 | 36 | 1015.4 |
| 20260503221557 | 17 | 171 | 1.6 | 8.0 | 0.00 | 0.00 | 0.00 | 37 | 1015.4 |
| 20260503221456 | 17 | 173 | 1.6 | 9.7 | 0.00 | 0.00 | 0.00 | 36 | 1015.5 |
| 20260503221357 | 17 | 173 | 1.6 | 9.7 | 0.00 | 0.00 | 0.00 | 35 | 1015.4 |
| 20260503221256 | 17 | 173 | 1.6 | 9.7 | 0.00 | 0.00 | 0.00 | 36 | 1015.6 |
| 20260503221157 | 17 | 171 | 1.6 | 9.7 | 0.00 | 0.00 | 0.00 | 37 | 1015.5 |
| 20260503221055 | 17 | 169 | 1.6 | 9.7 | 0.00 | 0.00 | 0.00 | 37 | 1015.5 |
| 20260503220954 | 17 | 169 | 3.2 | 9.7 | 0.00 | 0.00 | 0.00 | 37 | 1015.5 |
| 20260503220853 | 17 | 169 | 3.2 | 9.7 | 0.00 | 0.00 | 0.00 | 37 | 1015.5 |
| 20260503220751 | 17 | 169 | 3.2 | 9.7 | 0.00 | 0.00 | 0.00 | 35 | 1015.5 |
| 20260503220651 | 17 | 169 | 3.2 | 9.7 | 0.00 | 0.00 | 0.00 | 35 | 1015.5 |
| 20260503220548 | 17 | 171 | 1.6 | 9.7 | 0.00 | 0.00 | 0.00 | 36 | 1015.5 |
| 20260503220448 | 17 | 177 | 1.6 | 6.4 | 0.00 | 0.00 | 0.00 | 37 | 1015.6 |
| 20260503220347 | 17 | 178 | 1.6 | 6.4 | 0.00 | 0.00 | 0.00 | 37 | 1015.5 |
| 20260503220245 | 17 | 259 | 3.2 | 9.7 | 0.00 | 0.00 | 0.00 | 35 | 1015.5 |
| 20260503220137 | 17 | 232 | 3.2 | 9.7 | 0.00 | 0.00 | 0.00 | 35 | 1015.6 |
| 20260503220038 | 17 | 244 | 3.2 | 9.7 | 0.00 | 0.00 | 0.00 | 37 | 1015.5 |
| 20260503215939 | 17 | 123 | 3.2 | 9.7 | 0.00 | 0.00 | 0.00 | 37 | 1015.5 |
| 20260503215837 | 17 | 188 | 3.2 | 9.7 | 0.00 | 0.00 | 0.00 | 36 | 1015.6 |
| 20260503215734 | 17 | 188 | 3.2 | 9.7 | 0.00 | 0.00 | 0.00 | 36 | 1015.6 |
| 20260503215628 | 17 | 178 | 3.2 | 9.7 | 0.00 | 0.00 | 0.00 | 37 | 1015.5 |
| 20260503215528 | 17 | 175 | 3.2 | 9.7 | 0.00 | 0.00 | 0.00 | 37 | 1015.5 |
| 20260503215428 | 17 | 175 | 3.2 | 9.7 | 0.00 | 0.00 | 0.00 | 36 | 1015.5 |
| 20260503215328 | 17 | 163 | 3.2 | 8.0 | 0.00 | 0.00 | 0.00 | 37 | 1015.5 |
| 20260503215228 | 17 | 163 | 3.2 | 8.0 | 0.00 | 0.00 | 0.00 | 37 | 1015.5 |
| 20260503215127 | 17 | 119 | 3.2 | 8.0 | 0.00 | 0.00 | 0.00 | 37 | 1015.6 |
| 20260503215027 | 17 | 121 | 3.2 | 8.0 | 0.00 | 0.00 | 0.00 | 37 | 1015.6 |
| 20260503214924 | 17 | 198 | 3.2 | 8.0 | 0.00 | 0.00 | 0.00 | 37 | 1015.6 |
| 20260503214824 | 17 | 272 | 3.2 | 11.3 | 0.00 | 0.00 | 0.00 | 37 | 1015.6 |
| 20260503214723 | 17 | 272 | 3.2 | 11.3 | 0.00 | 0.00 | 0.00 | 35 | 1015.6 |
| 20260503214615 | 17 | 329 | 3.2 | 11.3 | 0.00 | 0.00 | 0.00 | 35 | 1015.7 |
| 20260503214516 | 17 | 219 | 3.2 | 11.3 | 0.00 | 0.00 | 0.00 | 35 | 1015.7 |
| 20260503214414 | 17 | 126 | 3.2 | 11.3 | 0.00 | 0.00 | 0.00 | 38 | 1015.7 |
| 20260503214313 | 17 | 131 | 3.2 | 11.3 | 0.00 | 0.00 | 0.00 | 36 | 1015.7 |
| 20260503214212 | 17 | 131 | 3.2 | 11.3 | 0.00 | 0.00 | 0.00 | 36 | 1015.7 |
| 20260503214106 | 17 | 131 | 3.2 | 11.3 | 0.00 | 0.00 | 0.00 | 36 | 1015.7 |
| 20260503214005 | 17 | 131 | 1.6 | 11.3 | 0.00 | 0.00 | 0.00 | 36 | 1015.7 |
| 20260503213906 | 17 | 129 | 1.6 | 11.3 | 0.00 | 0.00 | 0.00 | 36 | 1015.7 |
| 20260503213806 | 17 | 168 | 1.6 | 9.7 | 0.00 | 0.00 | 0.00 | 37 | 1015.7 |
| 20260503213706 | 17 | 131 | 0.0 | 9.7 | 0.00 | 0.00 | 0.00 | 36 | 1015.7 |
| 20260503213601 | 17 | 156 | 0.0 | 9.7 | 0.00 | 0.00 | 0.00 | 35 | 1015.7 |
| 20260503213500 | 18 | 163 | 0.0 | 0.0 | 0.00 | 0.00 | 0.00 | 34 | 1015.7 |
| 20260503213401 | 18 | 134 | 0.0 | 0.0 | 0.00 | 0.00 | 0.00 | 36 | 1015.7 |
| 20260503213302 | 18 | 188 | 0.0 | 4.8 | 0.00 | 0.00 | 0.00 | 35 | 1015.8 |
| 20260503213201 | 18 | 191 | 1.6 | 4.8 | 0.00 | 0.00 | 0.00 | 36 | 1015.8 |
| 20260503213050 | 18 | 157 | 1.6 | 4.8 | 0.00 | 0.00 | 0.00 | 34 | 1015.9 |
| 20260503212949 | 18 | 160 | 1.6 | 4.8 | 0.00 | 0.00 | 0.00 | 33 | 1015.8 |
| 20260503212850 | 18 | 217 | 1.6 | 4.8 | 0.00 | 0.00 | 0.00 | 33 | 1015.8 |
| 20260503212749 | 18 | 217 | 1.6 | 4.8 | 0.00 | 0.00 | 0.00 | 34 | 1015.9 |
| 20260503212651 | 18 | 188 | 1.6 | 8.0 | 0.00 | 0.00 | 0.00 | 36 | 1015.8 |
| 20260503212543 | 18 | 185 | 1.6 | 8.0 | 0.00 | 0.00 | 0.00 | 38 | 1015.9 |
| 20260503212444 | 18 | 115 | 1.6 | 8.0 | 0.00 | 0.00 | 0.00 | 35 | 1015.8 |
| 20260503212344 | 18 | 115 | 1.6 | 8.0 | 0.00 | 0.00 | 0.00 | 37 | 1015.9 |
| 20260503212244 | 18 | 103 | 1.6 | 8.0 | 0.00 | 0.00 | 0.00 | 37 | 1015.9 |
| 20260503212145 | 18 | 250 | 1.6 | 8.0 | 0.00 | 0.00 | 0.00 | 37 | 1015.8 |
| 20260503212042 | 18 | 234 | 1.6 | 8.0 | 0.00 | 0.00 | 0.00 | 38 | 1015.9 |
| 20260503211941 | 18 | 188 | 1.6 | 8.0 | 0.00 | 0.00 | 0.00 | 37 | 1015.9 |
| 20260503211842 | 18 | 190 | 0.0 | 8.0 | 0.00 | 0.00 | 0.00 | 36 | 1015.9 |
| 20260503211741 | 18 | 231 | 0.0 | 8.0 | 0.00 | 0.00 | 0.00 | 35 | 1015.8 |
| 20260503211641 | 18 | 355 | 0.0 | 4.8 | 0.00 | 0.00 | 0.00 | 35 | 1015.9 |
| 20260503211533 | 18 | 11 | 0.0 | 0.0 | 0.00 | 0.00 | 0.00 | 36 | 1016.0 |
| 20260503211432 | 18 | 11 | 0.0 | 0.0 | 0.00 | 0.00 | 0.00 | 36 | 1016.0 |
| 20260503211333 | 18 | 9 | 0.0 | 0.0 | 0.00 | 0.00 | 0.00 | 36 | 1016.1 |
| 20260503211231 | 17 | 153 | 0.0 | 0.0 | 0.00 | 0.00 | 0.00 | 37 | 1016.1 |
| 20260503211128 | 17 | 161 | 0.0 | 0.0 | 0.00 | 0.00 | 0.00 | 36 | 1016.1 |
| 20260503211027 | 17 | 281 | 0.0 | 0.0 | 0.00 | 0.00 | 0.00 | 36 | 1016.1 |
| 20260503210926 | 17 | 28 | 0.0 | 0.0 | 0.00 | 0.00 | 0.00 | 36 | 1016.0 |
| 20260503210825 | 17 | 261 | 0.0 | 0.0 | 0.00 | 0.00 | 0.00 | 35 | 1016.0 |
| 20260503210725 | 17 | 342 | 0.0 | 0.0 | 0.00 | 0.00 | 0.00 | 35 | 1016.1 |
| 20260503210623 | 17 | 237 | 0.0 | 0.0 | 0.00 | 0.00 | 0.00 | 35 | 1016.1 |
| 20260503210524 | 17 | 146 | 0.0 | 0.0 | 0.00 | 0.00 | 0.00 | 35 | 1016.0 |
| 20260503210419 | 17 | 212 | 0.0 | 0.0 | 0.00 | 0.00 | 0.00 | 34 | 1016.0 |
| 20260503210320 | 17 | 167 | 0.0 | 0.0 | 0.00 | 0.00 | 0.00 | 33 | 1016.1 |
| 20260503210219 | 17 | 173 | 0.0 | 0.0 | 0.00 | 0.00 | 0.00 | 33 | 1016.0 |
| 20260503210116 | 17 | 173 | 0.0 | 0.0 | 0.00 | 0.00 | 0.00 | 35 | 1016.0 |
| 20260503210007 | 17 | 172 | 0.0 | 0.0 | 0.00 | 0.00 | 0.00 | 36 | 1016.1 |
| 20260503205906 | 17 | 167 | 0.0 | 0.0 | 0.00 | 0.00 | 0.00 | 37 | 1016.1 |
| 20260503205807 | 17 | 173 | 0.0 | 0.0 | 0.00 | 0.00 | 0.00 | 35 | 1016.1 |
| 20260503205707 | 17 | 162 | 0.0 | 0.0 | 0.00 | 0.00 | 0.00 | 35 | 1016.1 |
| 20260503205607 | 17 | 151 | 0.0 | 0.0 | 0.00 | 0.00 | 0.00 | 36 | 1016.0 |
| 20260503205500 | 17 | 198 | 0.0 | 0.0 | 0.00 | 0.00 | 0.00 | 34 | 1016.0 |
| 20260503205400 | 17 | 182 | 0.0 | 0.0 | 0.00 | 0.00 | 0.00 | 35 | 1016.1 |
| 20260503205303 | 17 | 182 | 0.0 | 0.0 | 0.00 | 0.00 | 0.00 | 35 | 1016.1 |
| 20260503205200 | 17 | 198 | 0.0 | 0.0 | 0.00 | 0.00 | 0.00 | 36 | 1016.1 |
| 20260503205101 | 17 | 163 | 0.0 | 0.0 | 0.00 | 0.00 | 0.00 | 37 | 1016.1 |
| 20260503204957 | 18 | 140 | 0.0 | 0.0 | 0.00 | 0.00 | 0.00 | 35 | 1016.1 |
| 20260503204857 | 18 | 145 | 0.0 | 0.0 | 0.00 | 0.00 | 0.00 | 35 | 1016.0 |
| 20260503204756 | 18 | 163 | 0.0 | 0.0 | 0.00 | 0.00 | 0.00 | 34 | 1016.1 |
| 20260503204657 | 18 | 139 | 0.0 | 0.0 | 0.00 | 0.00 | 0.00 | 35 | 1016.1 |
| 20260503204555 | 18 | 196 | 0.0 | 0.0 | 0.00 | 0.00 | 0.00 | 35 | 1016.1 |
| 20260503204446 | 18 | 145 | 0.0 | 0.0 | 0.00 | 0.00 | 0.00 | 37 | 1016.1 |
| 20260503204346 | 18 | 119 | 0.0 | 0.0 | 0.00 | 0.00 | 0.00 | 35 | 1016.1 |
| 20260503204246 | 18 | 202 | 0.0 | 0.0 | 0.00 | 0.00 | 0.00 | 36 | 1016.1 |
| 20260503204147 | 18 | 150 | 0.0 | 0.0 | 0.00 | 0.00 | 0.00 | 34 | 1016.1 |
| 20260503204044 | 18 | 161 | 0.0 | 0.0 | 0.00 | 0.00 | 0.00 | 35 | 1016.1 |
| 20260503203940 | 18 | 146 | 0.0 | 0.0 | 0.00 | 0.00 | 0.00 | 35 | 1016.2 |
| 20260503203839 | 18 | 200 | 0.0 | 0.0 | 0.00 | 0.00 | 0.00 | 36 | 1016.1 |
| 20260503203738 | 18 | 107 | 0.0 | 0.0 | 0.00 | 0.00 | 0.00 | 35 | 1016.1 |
| 20260503203640 | 18 | 64 | 0.0 | 0.0 | 0.00 | 0.00 | 0.00 | 35 | 1016.2 |
| 20260503203538 | 18 | 148 | 0.0 | 0.0 | 0.00 | 0.00 | 0.00 | 33 | 1016.2 |
| 20260503203433 | 18 | 171 | 0.0 | 0.0 | 0.00 | 0.00 | 0.00 | 33 | 1016.2 |
| 20260503203331 | 18 | 98 | 0.0 | 0.0 | 0.00 | 0.00 | 0.00 | 32 | 1016.2 |
| 20260503203234 | 18 | 96 | 0.0 | 0.0 | 0.00 | 0.00 | 0.00 | 31 | 1016.2 |
| 20260503203132 | 18 | 340 | 0.0 | 0.0 | 0.00 | 0.00 | 0.00 | 31 | 1016.2 |
| 20260503203033 | 18 | 279 | 0.0 | 0.0 | 0.00 | 0.00 | 0.00 | 33 | 1016.2 |
| 20260503202922 | 17 | 93 | 0.0 | 9.7 | 0.00 | 0.00 | 0.00 | 31 | 1016.2 |
| 20260503202822 | 18 | 147 | 0.0 | 9.7 | 0.00 | 0.00 | 0.00 | 32 | 1016.3 |
| 20260503202723 | 18 | 119 | 0.0 | 9.7 | 0.00 | 0.00 | 0.00 | 32 | 1016.3 |
| 20260503202623 | 18 | 132 | 0.0 | 9.7 | 0.00 | 0.00 | 0.00 | 31 | 1016.2 |
| 20260503202523 | 18 | 144 | 0.0 | 9.7 | 0.00 | 0.00 | 0.00 | 32 | 1016.2 |
| 20260503202420 | 18 | 144 | 0.0 | 9.7 | 0.00 | 0.00 | 0.00 | 30 | 1016.2 |
| 20260503202320 | 17 | 147 | 0.0 | 9.7 | 0.00 | 0.00 | 0.00 | 31 | 1016.2 |
| 20260503202221 | 18 | 144 | 0.0 | 9.7 | 0.00 | 0.00 | 0.00 | 30 | 1016.3 |
| 20260503202118 | 18 | 66 | 1.6 | 9.7 | 0.00 | 0.00 | 0.00 | 31 | 1016.2 |
| 20260503202016 | 17 | 155 | 1.6 | 9.7 | 0.00 | 0.00 | 0.00 | 29 | 1016.3 |
| 20260503201917 | 17 | 155 | 3.2 | 14.5 | 0.00 | 0.00 | 0.00 | 30 | 1016.3 |
| 20260503201815 | 18 | 103 | 3.2 | 14.5 | 0.00 | 0.00 | 0.00 | 31 | 1016.3 |
| 20260503201713 | 18 | 306 | 3.2 | 14.5 | 0.00 | 0.00 | 0.00 | 29 | 1016.3 |
| 20260503201613 | 17 | 306 | 3.2 | 14.5 | 0.00 | 0.00 | 0.00 | 30 | 1016.4 |
| 20260503201511 | 17 | 150 | 4.8 | 14.5 | 0.00 | 0.00 | 0.00 | 30 | 1016.3 |
| 20260503201359 | 17 | 150 | 4.8 | 14.5 | 0.00 | 0.00 | 0.00 | 30 | 1016.3 |
| 20260503201300 | 17 | 142 | 4.8 | 14.5 | 0.00 | 0.00 | 0.00 | 32 | 1016.3 |
| 20260503201200 | 17 | 151 | 4.8 | 14.5 | 0.00 | 0.00 | 0.00 | 30 | 1016.4 |
| 20260503201100 | 17 | 198 | 4.8 | 14.5 | 0.00 | 0.00 | 0.00 | 29 | 1016.4 |
| 20260503201001 | 17 | 175 | 3.2 | 14.5 | 0.00 | 0.00 | 0.00 | 32 | 1016.4 |
| 20260503200854 | 17 | 248 | 3.2 | 11.3 | 0.00 | 0.00 | 0.00 | 31 | 1016.4 |
| 20260503200755 | 17 | 201 | 3.2 | 11.3 | 0.00 | 0.00 | 0.00 | 33 | 1016.5 |
| 20260503200655 | 17 | 201 | 1.6 | 11.3 | 0.00 | 0.00 | 0.00 | 30 | 1016.5 |
| 20260503200555 | 17 | 204 | 1.6 | 11.3 | 0.00 | 0.00 | 0.00 | 29 | 1016.4 |
| 20260503200454 | 17 | 196 | 1.6 | 11.3 | 0.00 | 0.00 | 0.00 | 30 | 1016.5 |
| 20260503200349 | 17 | 267 | 0.0 | 9.7 | 0.00 | 0.00 | 0.00 | 30 | 1016.5 |
| 20260503200249 | 17 | 110 | 0.0 | 4.8 | 0.00 | 0.00 | 0.00 | 30 | 1016.5 |
| 20260503200149 | 17 | 142 | 0.0 | 4.8 | 0.00 | 0.00 | 0.00 | 29 | 1016.6 |
| 20260503200049 | 17 | 141 | 0.0 | 4.8 | 0.00 | 0.00 | 0.00 | 30 | 1016.6 |
| 20260503195948 | 17 | 104 | 0.0 | 0.0 | 0.00 | 0.00 | 0.00 | 32 | 1016.6 |
| 20260503195841 | 17 | 90 | 0.0 | 0.0 | 0.00 | 0.00 | 0.00 | 30 | 1016.6 |
| 20260503195738 | 17 | 307 | 0.0 | 0.0 | 0.00 | 0.00 | 0.00 | 28 | 1016.6 |
| 20260503195638 | 17 | 306 | 0.0 | 0.0 | 0.00 | 0.00 | 0.00 | 28 | 1016.6 |
| 20260503195537 | 17 | 287 | 0.0 | 0.0 | 0.00 | 0.00 | 0.00 | 28 | 1016.7 |
| 20260503195438 | 17 | 304 | 0.0 | 0.0 | 0.00 | 0.00 | 0.00 | 28 | 1016.9 |
| 20260503195332 | 17 | 265 | 0.0 | 0.0 | 0.00 | 0.00 | 0.00 | 29 | 1016.7 |
| 20260503195232 | 17 | 300 | 0.0 | 0.0 | 0.00 | 0.00 | 0.00 | 29 | 1016.7 |
| 20260503195133 | 17 | 286 | 0.0 | 9.7 | 0.00 | 0.00 | 0.00 | 28 | 1016.7 |
| 20260503195032 | 17 | 283 | 0.0 | 9.7 | 0.00 | 0.00 | 0.00 | 31 | 1016.7 |
| 20260503194933 | 17 | 330 | 0.0 | 9.7 | 0.00 | 0.00 | 0.00 | 30 | 1016.7 |
| 20260503194829 | 17 | 293 | 1.6 | 9.7 | 0.00 | 0.00 | 0.00 | 31 | 1016.7 |
| 20260503194726 | 17 | 254 | 1.6 | 9.7 | 0.00 | 0.00 | 0.00 | 31 | 1016.6 |
| 20260503194626 | 17 | 241 | 1.6 | 9.7 | 0.00 | 0.00 | 0.00 | 31 | 1016.6 |
| 20260503194527 | 17 | 116 | 1.6 | 9.7 | 0.00 | 0.00 | 0.00 | 31 | 1016.6 |
| 20260503194428 | 17 | 170 | 3.2 | 9.7 | 0.00 | 0.00 | 0.00 | 30 | 1016.7 |
| 20260503194320 | 17 | 170 | 3.2 | 9.7 | 0.00 | 0.00 | 0.00 | 28 | 1016.7 |
| 20260503194220 | 17 | 170 | 3.2 | 9.7 | 0.00 | 0.00 | 0.00 | 30 | 1016.7 |
| 20260503194120 | 17 | 112 | 3.2 | 11.3 | 0.00 | 0.00 | 0.00 | 31 | 1016.7 |
| 20260503194018 | 16 | 110 | 3.2 | 11.3 | 0.00 | 0.00 | 0.00 | 30 | 1016.7 |
| 20260503193917 | 16 | 110 | 3.2 | 11.3 | 0.00 | 0.00 | 0.00 | 29 | 1016.7 |
| 20260503193815 | 16 | 110 | 3.2 | 11.3 | 0.00 | 0.00 | 0.00 | 28 | 1016.7 |
| 20260503193714 | 17 | 111 | 3.2 | 11.3 | 0.00 | 0.00 | 0.00 | 30 | 1016.7 |
| 20260503193611 | 17 | 119 | 3.2 | 11.3 | 0.00 | 0.00 | 0.00 | 27 | 1016.9 |
| 20260503193512 | 17 | 120 | 3.2 | 16.1 | 0.00 | 0.00 | 0.00 | 27 | 1016.9 |
| 20260503193411 | 17 | 128 | 3.2 | 16.1 | 0.00 | 0.00 | 0.00 | 28 | 1016.9 |
| 20260503193305 | 17 | 243 | 3.2 | 16.1 | 0.00 | 0.00 | 0.00 | 29 | 1016.9 |
| 20260503193204 | 17 | 287 | 3.2 | 16.1 | 0.00 | 0.00 | 0.00 | 32 | 1016.9 |
| 20260503193105 | 17 | 287 | 3.2 | 16.1 | 0.00 | 0.00 | 0.00 | 31 | 1016.9 |
| 20260503193005 | 17 | 310 | 4.8 | 16.1 | 0.00 | 0.00 | 0.00 | 31 | 1017.0 |
| 20260503192904 | 17 | 355 | 4.8 | 16.1 | 0.00 | 0.00 | 0.00 | 29 | 1017.0 |
| 20260503192758 | 16 | 342 | 4.8 | 16.1 | 0.00 | 0.00 | 0.00 | 30 | 1017.0 |
| 20260503192658 | 16 | 342 | 4.8 | 16.1 | 0.00 | 0.00 | 0.00 | 28 | 1016.9 |
| 20260503192556 | 16 | 342 | 4.8 | 16.1 | 0.00 | 0.00 | 0.00 | 29 | 1017.0 |
| 20260503192457 | 16 | 348 | 6.4 | 16.1 | 0.00 | 0.00 | 0.00 | 31 | 1016.9 |
| 20260503192354 | 16 | 298 | 6.4 | 19.3 | 0.00 | 0.00 | 0.00 | 30 | 1017.0 |
| 20260503192250 | 16 | 298 | 6.4 | 19.3 | 0.00 | 0.00 | 0.00 | 31 | 1016.9 |
| 20260503192147 | 16 | 348 | 6.4 | 19.3 | 0.00 | 0.00 | 0.00 | 32 | 1016.9 |
| 20260503192049 | 16 | 321 | 6.4 | 19.3 | 0.00 | 0.00 | 0.00 | 31 | 1017.0 |
| 20260503191948 | 16 | 313 | 4.8 | 19.3 | 0.00 | 0.00 | 0.00 | 30 | 1016.9 |
| 20260503191848 | 16 | 280 | 6.4 | 19.3 | 0.00 | 0.00 | 0.00 | 28 | 1017.0 |
| 20260503191742 | 16 | 200 | 6.4 | 19.3 | 0.00 | 0.00 | 0.00 | 30 | 1016.9 |
| 20260503191642 | 16 | 197 | 6.4 | 19.3 | 0.00 | 0.00 | 0.00 | 29 | 1017.0 |
| 20260503191542 | 16 | 303 | 6.4 | 19.3 | 0.00 | 0.00 | 0.00 | 29 | 1017.0 |
| 20260503191442 | 16 | 291 | 6.4 | 19.3 | 0.00 | 0.00 | 0.00 | 30 | 1017.1 |
| 20260503191342 | 16 | 332 | 4.8 | 14.5 | 0.00 | 0.00 | 0.00 | 29 | 1017.0 |
| 20260503191232 | 16 | 304 | 4.8 | 14.5 | 0.00 | 0.00 | 0.00 | 29 | 1017.1 |
| 20260503191132 | 16 | 314 | 4.8 | 14.5 | 0.00 | 0.00 | 0.00 | 29 | 1017.0 |
| 20260503191033 | 16 | 201 | 4.8 | 14.5 | 0.00 | 0.00 | 0.00 | 30 | 1017.1 |
| 20260503190933 | 16 | 314 | 4.8 | 14.5 | 0.00 | 0.00 | 0.00 | 31 | 1017.1 |
| 20260503190832 | 16 | 336 | 4.8 | 14.5 | 0.00 | 0.00 | 0.00 | 32 | 1017.1 |
| 20260503190727 | 16 | 333 | 4.8 | 14.5 | 0.00 | 0.00 | 0.00 | 31 | 1017.1 |
| 20260503190626 | 16 | 146 | 4.8 | 14.5 | 0.00 | 0.00 | 0.00 | 31 | 1017.1 |
| 20260503190527 | 16 | 49 | 4.8 | 14.5 | 0.00 | 0.00 | 0.00 | 31 | 1017.1 |
| 20260503190425 | 16 | 38 | 4.8 | 19.3 | 0.00 | 0.00 | 0.00 | 30 | 1017.1 |
| 20260503190327 | 16 | 319 | 4.8 | 19.3 | 0.00 | 0.00 | 0.00 | 31 | 1017.1 |
| 20260503190221 | 16 | 315 | 4.8 | 19.3 | 0.00 | 0.00 | 0.00 | 31 | 1017.2 |
| 20260503190120 | 16 | 347 | 4.8 | 19.3 | 0.00 | 0.00 | 0.00 | 34 | 1017.1 |
| 20260503190021 | 16 | 5 | 4.8 | 19.3 | 0.00 | 0.00 | 0.00 | 31 | 1017.3 |
| 20260503185921 | 16 | 349 | 4.8 | 19.3 | 0.00 | 0.00 | 0.00 | 32 | 1017.2 |
| 20260503185821 | 16 | 196 | 4.8 | 19.3 | 0.00 | 0.00 | 0.00 | 31 | 1017.2 |
| 20260503185713 | 16 | 319 | 4.8 | 19.3 | 0.00 | 0.00 | 0.00 | 30 | 1017.2 |
| 20260503185611 | 16 | 251 | 4.8 | 19.3 | 0.00 | 0.00 | 0.00 | 31 | 1017.3 |
| 20260503185510 | 16 | 234 | 4.8 | 19.3 | 0.00 | 0.00 | 0.00 | 30 | 1017.3 |
| 20260503185410 | 16 | 318 | 4.8 | 14.5 | 0.00 | 0.00 | 0.00 | 33 | 1017.3 |
| 20260503185310 | 16 | 253 | 4.8 | 14.5 | 0.00 | 0.00 | 0.00 | 31 | 1017.3 |
| 20260503185203 | 16 | 42 | 4.8 | 14.5 | 0.00 | 0.00 | 0.00 | 34 | 1017.3 |
| 20260503185103 | 16 | 355 | 4.8 | 14.5 | 0.00 | 0.00 | 0.00 | 34 | 1017.3 |
| 20260503185005 | 16 | 193 | 4.8 | 14.5 | 0.00 | 0.00 | 0.00 | 34 | 1017.4 |
| 20260503184904 | 16 | 263 | 4.8 | 14.5 | 0.00 | 0.00 | 0.00 | 32 | 1017.3 |
| 20260503184804 | 16 | 191 | 4.8 | 14.5 | 0.00 | 0.00 | 0.00 | 33 | 1017.4 |
| 20260503184657 | 16 | 169 | 4.8 | 14.5 | 0.00 | 0.00 | 0.00 | 33 | 1017.4 |
| 20260503184558 | 16 | 227 | 4.8 | 14.5 | 0.00 | 0.00 | 0.00 | 36 | 1017.4 |
| 20260503184459 | 16 | 146 | 6.4 | 14.5 | 0.00 | 0.00 | 0.00 | 37 | 1017.5 |
| 20260503184358 | 16 | 152 | 6.4 | 14.5 | 0.00 | 0.00 | 0.00 | 34 | 1017.4 |
| 20260503184258 | 16 | 281 | 6.4 | 14.5 | 0.00 | 0.00 | 0.00 | 33 | 1017.5 |
| 20260503184149 | 16 | 136 | 6.4 | 14.5 | 0.00 | 0.00 | 0.00 | 33 | 1017.5 |
| 20260503184048 | 16 | 345 | 8.0 | 16.1 | 0.00 | 0.00 | 0.00 | 34 | 1017.5 |
| 20260503183949 | 16 | 186 | 6.4 | 16.1 | 0.00 | 0.00 | 0.00 | 33 | 1017.4 |
| 20260503183848 | 15 | 245 | 6.4 | 16.1 | 0.00 | 0.00 | 0.00 | 32 | 1017.5 |
| 20260503183749 | 15 | 355 | 6.4 | 16.1 | 0.00 | 0.00 | 0.00 | 35 | 1017.5 |
| 20260503183642 | 16 | 273 | 6.4 | 16.1 | 0.00 | 0.00 | 0.00 | 34 | 1017.6 |
| 20260503183542 | 16 | 344 | 6.4 | 16.1 | 0.00 | 0.00 | 0.00 | 33 | 1017.5 |
| 20260503183443 | 16 | 329 | 6.4 | 16.1 | 0.00 | 0.00 | 0.00 | 33 | 1017.6 |
| 20260503183342 | 16 | 338 | 6.4 | 16.1 | 0.00 | 0.00 | 0.00 | 33 | 1017.5 |
| 20260503183243 | 16 | 5 | 6.4 | 16.1 | 0.00 | 0.00 | 0.00 | 33 | 1017.5 |
| 20260503183137 | 16 | 326 | 6.4 | 16.1 | 0.00 | 0.00 | 0.00 | 33 | 1017.6 |
| 20260503183035 | 16 | 329 | 6.4 | 12.9 | 0.00 | 0.00 | 0.00 | 32 | 1017.7 |
| 20260503182937 | 16 | 279 | 4.8 | 12.9 | 0.00 | 0.00 | 0.00 | 33 | 1017.7 |
| 20260503182835 | 16 | 301 | 6.4 | 14.5 | 0.00 | 0.00 | 0.00 | 37 | 1017.7 |
| 20260503182736 | 16 | 355 | 6.4 | 16.1 | 0.00 | 0.00 | 0.00 | 34 | 1017.7 |
| 20260503182629 | 16 | 121 | 6.4 | 16.1 | 0.00 | 0.00 | 0.00 | 34 | 1017.6 |
| 20260503182526 | 15 | 320 | 6.4 | 16.1 | 0.00 | 0.00 | 0.00 | 34 | 1017.7 |
| 20260503182427 | 15 | 311 | 6.4 | 16.1 | 0.00 | 0.00 | 0.00 | 33 | 1017.7 |
| 20260503182325 | 15 | 306 | 6.4 | 16.1 | 0.00 | 0.00 | 0.00 | 33 | 1017.7 |
| 20260503182227 | 15 | 306 | 6.4 | 16.1 | 0.00 | 0.00 | 0.00 | 35 | 1017.8 |
| 20260503182120 | 15 | 332 | 6.4 | 16.1 | 0.00 | 0.00 | 0.00 | 34 | 1017.8 |
| 20260503182020 | 15 | 269 | 6.4 | 16.1 | 0.00 | 0.00 | 0.00 | 33 | 1017.8 |
| 20260503181921 | 15 | 315 | 6.4 | 16.1 | 0.00 | 0.00 | 0.00 | 33 | 1017.8 |
| 20260503181820 | 15 | 321 | 6.4 | 16.1 | 0.00 | 0.00 | 0.00 | 37 | 1017.8 |
| 20260503181721 | 15 | 338 | 6.4 | 16.1 | 0.00 | 0.00 | 0.00 | 35 | 1017.9 |
| 20260503181620 | 15 | 321 | 6.4 | 16.1 | 0.00 | 0.00 | 0.00 | 34 | 1017.8 |
| 20260503181518 | 15 | 312 | 6.4 | 16.1 | 0.00 | 0.00 | 0.00 | 34 | 1017.9 |
| 20260503181418 | 15 | 279 | 4.8 | 16.1 | 0.00 | 0.00 | 0.00 | 35 | 1017.9 |
| 20260503181317 | 15 | 310 | 6.4 | 16.1 | 0.00 | 0.00 | 0.00 | 33 | 1017.9 |
| 20260503181215 | 15 | 80 | 6.4 | 16.1 | 0.00 | 0.00 | 0.00 | 35 | 1017.9 |
| 20260503181103 | 15 | 298 | 6.4 | 16.1 | 0.00 | 0.00 | 0.00 | 35 | 1017.9 |
| 20260503181004 | 15 | 305 | 6.4 | 16.1 | 0.00 | 0.00 | 0.00 | 34 | 1017.9 |
| 20260503180905 | 15 | 299 | 6.4 | 16.1 | 0.00 | 0.00 | 0.00 | 34 | 1017.9 |
| 20260503180805 | 15 | 298 | 8.0 | 19.3 | 0.00 | 0.00 | 0.00 | 36 | 1017.9 |
| 20260503180704 | 15 | 355 | 8.0 | 19.3 | 0.00 | 0.00 | 0.00 | 36 | 1018.0 |
| 20260503180558 | 15 | 11 | 8.0 | 19.3 | 0.00 | 0.00 | 0.00 | 35 | 1017.9 |
| 20260503180458 | 15 | 11 | 9.7 | 19.3 | 0.00 | 0.00 | 0.00 | 36 | 1017.9 |
| 20260503180358 | 15 | 19 | 9.7 | 19.3 | 0.00 | 0.00 | 0.00 | 34 | 1017.9 |
| 20260503180258 | 15 | 345 | 11.3 | 19.3 | 0.00 | 0.00 | 0.00 | 33 | 1017.9 |
| 20260503180159 | 15 | 302 | 11.3 | 19.3 | 0.00 | 0.00 | 0.00 | 33 | 1018.0 |
| 20260503180053 | 15 | 297 | 9.7 | 19.3 | 0.00 | 0.00 | 0.00 | 32 | 1017.9 |
| 20260503175951 | 15 | 270 | 9.7 | 19.3 | 0.00 | 0.00 | 0.00 | 33 | 1018.0 |
| 20260503175853 | 15 | 271 | 8.0 | 19.3 | 0.00 | 0.00 | 0.00 | 32 | 1017.9 |
| 20260503175751 | 15 | 0 | 6.4 | 17.7 | 0.00 | 0.00 | 0.00 | 33 | 1018.0 |
| 20260503175652 | 15 | 319 | 6.4 | 17.7 | 0.00 | 0.00 | 0.00 | 33 | 1018.1 |
| 20260503175548 | 15 | 302 | 6.4 | 17.7 | 0.00 | 0.00 | 0.00 | 34 | 1018.1 |
| 20260503175448 | 15 | 317 | 4.8 | 17.7 | 0.00 | 0.00 | 0.00 | 34 | 1018.0 |
| 20260503175349 | 15 | 5 | 4.8 | 14.5 | 0.00 | 0.00 | 0.00 | 36 | 1018.0 |
| 20260503175247 | 15 | 0 | 4.8 | 14.5 | 0.00 | 0.00 | 0.00 | 35 | 1018.1 |
| 20260503175149 | 15 | 355 | 4.8 | 14.5 | 0.00 | 0.00 | 0.00 | 39 | 1018.0 |
| 20260503175047 | 15 | 22 | 3.2 | 14.5 | 0.00 | 0.00 | 0.00 | 35 | 1018.0 |
| 20260503174948 | 15 | 338 | 3.2 | 14.5 | 0.00 | 0.00 | 0.00 | 35 | 1018.1 |
| 20260503174849 | 15 | 281 | 3.2 | 14.5 | 0.00 | 0.00 | 0.00 | 35 | 1018.1 |
| 20260503174747 | 15 | 281 | 4.8 | 14.5 | 0.00 | 0.00 | 0.00 | 34 | 1018.1 |
| 20260503174649 | 15 | 334 | 4.8 | 14.5 | 0.00 | 0.00 | 0.00 | 34 | 1018.0 |
| 20260503174549 | 15 | 284 | 4.8 | 14.5 | 0.00 | 0.00 | 0.00 | 33 | 1018.1 |
| 20260503174447 | 15 | 285 | 4.8 | 14.5 | 0.00 | 0.00 | 0.00 | 32 | 1018.2 |
| 20260503174346 | 15 | 287 | 4.8 | 14.5 | 0.00 | 0.00 | 0.00 | 33 | 1018.2 |
| 20260503174245 | 15 | 288 | 4.8 | 14.5 | 0.00 | 0.00 | 0.00 | 32 | 1018.2 |
| 20260503174145 | 15 | 287 | 3.2 | 14.5 | 0.00 | 0.00 | 0.00 | 34 | 1018.1 |
| 20260503174045 | 15 | 302 | 3.2 | 12.9 | 0.00 | 0.00 | 0.00 | 33 | 1018.1 |
| 20260503173945 | 15 | 355 | 3.2 | 12.9 | 0.00 | 0.00 | 0.00 | 33 | 1018.2 |
| 20260503173840 | 15 | 254 | 3.2 | 12.9 | 0.00 | 0.00 | 0.00 | 35 | 1018.2 |
| 20260503173739 | 15 | 254 | 3.2 | 12.9 | 0.00 | 0.00 | 0.00 | 34 | 1018.2 |
| 20260503173640 | 15 | 225 | 4.8 | 12.9 | 0.00 | 0.00 | 0.00 | 35 | 1018.2 |
| 20260503173538 | 15 | 236 | 4.8 | 12.9 | 0.00 | 0.00 | 0.00 | 35 | 1018.2 |
| 20260503173438 | 15 | 236 | 4.8 | 12.9 | 0.00 | 0.00 | 0.00 | 39 | 1018.2 |
| 20260503173331 | 15 | 207 | 4.8 | 12.9 | 0.00 | 0.00 | 0.00 | 38 | 1018.3 |
| 20260503173232 | 15 | 295 | 4.8 | 12.9 | 0.00 | 0.00 | 0.00 | 37 | 1018.3 |
| 20260503173132 | 15 | 22 | 4.8 | 12.9 | 0.00 | 0.00 | 0.00 | 36 | 1018.3 |
| 20260503173033 | 15 | 334 | 4.8 | 12.9 | 0.00 | 0.00 | 0.00 | 37 | 1018.3 |
| 20260503172932 | 15 | 18 | 4.8 | 12.9 | 0.00 | 0.00 | 0.00 | 39 | 1018.3 |
| 20260503172826 | 15 | 49 | 4.8 | 12.9 | 0.00 | 0.00 | 0.00 | 40 | 1018.3 |
| 20260503172726 | 14 | 36 | 4.8 | 12.9 | 0.00 | 0.00 | 0.00 | 36 | 1018.2 |
| 20260503172623 | 15 | 138 | 4.8 | 12.9 | 0.00 | 0.00 | 0.00 | 37 | 1018.3 |
| 20260503172525 | 14 | 202 | 3.2 | 12.9 | 0.00 | 0.00 | 0.00 | 37 | 1018.3 |
| 20260503172423 | 14 | 202 | 3.2 | 12.9 | 0.00 | 0.00 | 0.00 | 37 | 1018.3 |
| 20260503172317 | 14 | 186 | 3.2 | 9.7 | 0.00 | 0.00 | 0.00 | 37 | 1018.4 |
| 20260503172216 | 14 | 308 | 3.2 | 12.9 | 0.00 | 0.00 | 0.00 | 38 | 1018.3 |
| 20260503172116 | 14 | 10 | 4.8 | 16.1 | 0.00 | 0.00 | 0.00 | 38 | 1018.3 |
| 20260503172017 | 14 | 9 | 4.8 | 16.1 | 0.00 | 0.00 | 0.00 | 39 | 1018.3 |
| 20260503171917 | 14 | 9 | 4.8 | 16.1 | 0.00 | 0.00 | 0.00 | 36 | 1018.3 |
| 20260503171813 | 14 | 355 | 4.8 | 16.1 | 0.00 | 0.00 | 0.00 | 36 | 1018.3 |
| 20260503171712 | 14 | 355 | 4.8 | 16.1 | 0.00 | 0.00 | 0.00 | 36 | 1018.4 |
| 20260503171612 | 14 | 355 | 4.8 | 16.1 | 0.00 | 0.00 | 0.00 | 37 | 1018.4 |
| 20260503171511 | 14 | 0 | 4.8 | 16.1 | 0.00 | 0.00 | 0.00 | 35 | 1018.4 |
| 20260503171411 | 13 | 302 | 4.8 | 16.1 | 0.00 | 0.00 | 0.00 | 35 | 1018.6 |
| 20260503171306 | 14 | 313 | 4.8 | 16.1 | 0.00 | 0.00 | 0.00 | 34 | 1018.6 |
| 20260503171205 | 14 | 282 | 4.8 | 16.1 | 0.00 | 0.00 | 0.00 | 37 | 1018.6 |
| 20260503171105 | 14 | 337 | 3.2 | 14.5 | 0.00 | 0.00 | 0.00 | 37 | 1018.4 |
| 20260503171007 | 14 | 332 | 3.2 | 14.5 | 0.00 | 0.00 | 0.00 | 38 | 1018.4 |
| 20260503170907 | 14 | 345 | 3.2 | 14.5 | 0.00 | 0.00 | 0.00 | 38 | 1018.6 |
| 20260503170805 | 14 | 355 | 4.8 | 19.3 | 0.00 | 0.00 | 0.00 | 37 | 1018.6 |
| 20260503170706 | 13 | 317 | 4.8 | 19.3 | 0.00 | 0.00 | 0.00 | 37 | 1018.6 |
| 20260503170605 | 13 | 315 | 6.4 | 19.3 | 0.00 | 0.00 | 0.00 | 39 | 1018.6 |
| 20260503170503 | 13 | 274 | 6.4 | 19.3 | 0.00 | 0.00 | 0.00 | 37 | 1018.6 |
| 20260503170404 | 13 | 176 | 6.4 | 19.3 | 0.00 | 0.00 | 0.00 | 36 | 1018.6 |
| 20260503170303 | 13 | 323 | 8.0 | 19.3 | 0.00 | 0.00 | 0.00 | 37 | 1018.6 |
| 20260503170204 | 13 | 323 | 8.0 | 19.3 | 0.00 | 0.00 | 0.00 | 37 | 1018.6 |
| 20260503170104 | 13 | 258 | 8.0 | 19.3 | 0.00 | 0.00 | 0.00 | 39 | 1018.6 |
| 20260503160128 | 11 | 304 | 8.0 | 16.1 | 0.00 | 0.00 | 0.00 | 44 | 1019.4 |
| 20260503150923 | 10 | 314 | 4.8 | 16.1 | 0.00 | 0.00 | 0.00 | 50 | 1019.3 |
| 20260503150823 | 10 | 171 | 4.8 | 16.1 | 0.00 | 0.00 | 0.00 | 50 | 1019.3 |
| 20260503150723 | 10 | 234 | 4.8 | 16.1 | 0.00 | 0.00 | 0.00 | 49 | 1019.2 |
| 20260503150625 | 10 | 292 | 4.8 | 12.9 | 0.00 | 0.00 | 0.00 | 51 | 1019.2 |
| 20260503150525 | 10 | 284 | 4.8 | 17.7 | 0.00 | 0.00 | 0.00 | 51 | 1019.3 |
| 20260503150424 | 10 | 333 | 4.8 | 17.7 | 0.00 | 0.00 | 0.00 | 51 | 1019.2 |
| 20260503150324 | 10 | 242 | 4.8 | 17.7 | 0.00 | 0.00 | 0.00 | 53 | 1019.2 |
| 20260503150223 | 10 | 292 | 4.8 | 17.7 | 0.00 | 0.00 | 0.00 | 52 | 1019.3 |
| 20260503150124 | 10 | 325 | 4.8 | 17.7 | 0.00 | 0.00 | 0.00 | 52 | 1019.3 |
| 20260503140314 | 8 | 355 | 9.7 | 19.3 | 0.00 | 0.00 | 0.00 | 58 | 1019.3 |
| 20260503140214 | 8 | 305 | 8.0 | 17.7 | 0.00 | 0.00 | 0.00 | 61 | 1019.3 |
| 20260503140115 | 8 | 346 | 8.0 | 17.7 | 0.00 | 0.00 | 0.00 | 60 | 1019.4 |
| 20260503131353 | 7 | 22 | 9.7 | 16.1 | 0.00 | 0.00 | 0.00 | 62 | 1019.1 |
| 20260503131251 | 7 | 335 | 9.7 | 16.1 | 0.00 | 0.00 | 0.00 | 62 | 1019.1 |
| 20260503131150 | 7 | 344 | 9.7 | 16.1 | 0.00 | 0.00 | 0.00 | 63 | 1019.1 |
| 20260503131049 | 7 | 347 | 8.0 | 16.1 | 0.00 | 0.00 | 0.00 | 63 | 1019.0 |
| 20260503130947 | 7 | 290 | 8.0 | 16.1 | 0.00 | 0.00 | 0.00 | 62 | 1019.1 |
| 20260503130845 | 7 | 301 | 8.0 | 16.1 | 0.00 | 0.00 | 0.00 | 62 | 1019.0 |
| 20260503130746 | 7 | 311 | 8.0 | 16.1 | 0.00 | 0.00 | 0.00 | 62 | 1019.0 |
| 20260503130646 | 7 | 331 | 8.0 | 16.1 | 0.00 | 0.00 | 0.00 | 62 | 1019.1 |
| 20260503130546 | 7 | 5 | 8.0 | 16.1 | 0.00 | 0.00 | 0.00 | 62 | 1019.1 |
| 20260503130445 | 7 | 5 | 8.0 | 16.1 | 0.00 | 0.00 | 0.00 | 63 | 1019.1 |
| 20260503130344 | 7 | 327 | 8.0 | 16.1 | 0.00 | 0.00 | 0.00 | 64 | 1019.2 |
| 20260503130241 | 7 | 315 | 8.0 | 16.1 | 0.00 | 0.00 | 0.00 | 65 | 1019.1 |
| 20260503130141 | 7 | 344 | 8.0 | 16.1 | 0.00 | 0.00 | 0.00 | 65 | 1019.1 |